<?xml version="1.0" encoding="UTF-8" standalone="no" ?>
<gpx xmlns="http://www.topografix.com/GPX/1/1" xmlns:xsi="http://www.w3.org/2001/XMLSchema-instance" xsi:schemaLocation="http://www.topografix.com/GPX/1/1 http://www.topografix.com/GPX/1/1/gpx.xsd" version="1.1" creator="VisuGPX - https://www.visugpx.com">
  <metadata>
    <name>J6 Bouillont-Monthermé</name>
    <desc><![CDATA[La traversée des Ardennes Belge VTT
J6 Bouillont - Monthermé 62km 1420m]]></desc>
  </metadata>
  <trk>
    <name><![CDATA[J6 Bouillont-Monthermé]]></name>
    <trkseg>
      <trkpt lat="49.79454" lon="5.07065">
        <ele>235.18</ele>
        <time>2013-04-29T15:59:58Z</time>
      </trkpt>
      <trkpt lat="49.7948" lon="5.07088">
        <ele>214.03</ele>
        <time>2013-04-30T07:09:55Z</time>
      </trkpt>
      <trkpt lat="49.79491" lon="5.07118">
        <ele>215.95</ele>
        <time>2013-04-30T07:10:01Z</time>
      </trkpt>
      <trkpt lat="49.7956" lon="5.07149">
        <ele>215.47</ele>
        <time>2013-04-30T07:10:13Z</time>
      </trkpt>
      <trkpt lat="49.79707" lon="5.0737">
        <ele>227.97</ele>
        <time>2013-04-30T07:11:28Z</time>
      </trkpt>
      <trkpt lat="49.79822" lon="5.07525">
        <ele>242.87</ele>
        <time>2013-04-30T07:12:50Z</time>
      </trkpt>
      <trkpt lat="49.79864" lon="5.07549">
        <ele>248.64</ele>
        <time>2013-04-30T07:13:21Z</time>
      </trkpt>
      <trkpt lat="49.80069" lon="5.0759">
        <ele>276.52</ele>
        <time>2013-04-30T07:15:46Z</time>
      </trkpt>
      <trkpt lat="49.80102" lon="5.07536">
        <ele>282.77</ele>
        <time>2013-04-30T07:16:18Z</time>
      </trkpt>
      <trkpt lat="49.80102" lon="5.07533">
        <ele>282.77</ele>
        <time>2013-04-30T07:16:19Z</time>
      </trkpt>
      <trkpt lat="49.80111" lon="5.07458">
        <ele>289.01</ele>
        <time>2013-04-30T07:16:51Z</time>
      </trkpt>
      <trkpt lat="49.80127" lon="5.07439">
        <ele>292.38</ele>
        <time>2013-04-30T07:17:05Z</time>
      </trkpt>
      <trkpt lat="49.80166" lon="5.07391">
        <ele>299.59</ele>
        <time>2013-04-30T07:17:31Z</time>
      </trkpt>
      <trkpt lat="49.80108" lon="5.07317">
        <ele>313.05</ele>
        <time>2013-04-30T07:18:24Z</time>
      </trkpt>
      <trkpt lat="49.80012" lon="5.07111">
        <ele>339.48</ele>
        <time>2013-04-30T07:20:24Z</time>
      </trkpt>
      <trkpt lat="49.80015" lon="5.06922">
        <ele>361.11</ele>
        <time>2013-04-30T07:22:05Z</time>
      </trkpt>
      <trkpt lat="49.80057" lon="5.06731">
        <ele>367.36</ele>
        <time>2013-04-30T07:23:10Z</time>
      </trkpt>
      <trkpt lat="49.80042" lon="5.06356">
        <ele>351.5</ele>
        <time>2013-04-30T07:27:24Z</time>
      </trkpt>
      <trkpt lat="49.80065" lon="5.06325">
        <ele>352.94</ele>
        <time>2013-04-30T07:27:38Z</time>
      </trkpt>
      <trkpt lat="49.80067" lon="5.06323">
        <ele>352.46</ele>
        <time>2013-04-30T07:27:39Z</time>
      </trkpt>
      <trkpt lat="49.80072" lon="5.0629">
        <ele>352.46</ele>
        <time>2013-04-30T07:28:16Z</time>
      </trkpt>
      <trkpt lat="49.80102" lon="5.06141">
        <ele>341.41</ele>
        <time>2013-04-30T07:28:31Z</time>
      </trkpt>
      <trkpt lat="49.80167" lon="5.06049">
        <ele>331.31</ele>
        <time>2013-04-30T07:28:42Z</time>
      </trkpt>
      <trkpt lat="49.80156" lon="5.05962">
        <ele>327.47</ele>
        <time>2013-04-30T07:28:49Z</time>
      </trkpt>
      <trkpt lat="49.80156" lon="5.05866">
        <ele>323.62</ele>
        <time>2013-04-30T07:28:56Z</time>
      </trkpt>
      <trkpt lat="49.80208" lon="5.05751">
        <ele>319.3</ele>
        <time>2013-04-30T07:29:07Z</time>
      </trkpt>
      <trkpt lat="49.80351" lon="5.05663">
        <ele>315.45</ele>
        <time>2013-04-30T07:29:29Z</time>
      </trkpt>
      <trkpt lat="49.80377" lon="5.0558">
        <ele>314.49</ele>
        <time>2013-04-30T07:29:38Z</time>
      </trkpt>
      <trkpt lat="49.80345" lon="5.05445">
        <ele>315.93</ele>
        <time>2013-04-30T07:29:58Z</time>
      </trkpt>
      <trkpt lat="49.8034" lon="5.05385">
        <ele>316.89</ele>
        <time>2013-04-30T07:30:10Z</time>
      </trkpt>
      <trkpt lat="49.80352" lon="5.05177">
        <ele>318.81</ele>
        <time>2013-04-30T07:30:59Z</time>
      </trkpt>
      <trkpt lat="49.80393" lon="5.05038">
        <ele>320.26</ele>
        <time>2013-04-30T07:31:36Z</time>
      </trkpt>
      <trkpt lat="49.80433" lon="5.04987">
        <ele>320.26</ele>
        <time>2013-04-30T07:31:56Z</time>
      </trkpt>
      <trkpt lat="49.8047" lon="5.04932">
        <ele>321.7</ele>
        <time>2013-04-30T07:32:16Z</time>
      </trkpt>
      <trkpt lat="49.80491" lon="5.0483">
        <ele>320.74</ele>
        <time>2013-04-30T07:38:57Z</time>
      </trkpt>
      <trkpt lat="49.80495" lon="5.04786">
        <ele>317.85</ele>
        <time>2013-04-30T07:39:07Z</time>
      </trkpt>
      <trkpt lat="49.80503" lon="5.0474">
        <ele>312.09</ele>
        <time>2013-04-30T07:39:24Z</time>
      </trkpt>
      <trkpt lat="49.80513" lon="5.04712">
        <ele>308.72</ele>
        <time>2013-04-30T07:43:28Z</time>
      </trkpt>
      <trkpt lat="49.80513" lon="5.04712">
        <ele>314.97</ele>
        <time>2013-04-30T07:43:30Z</time>
      </trkpt>
      <trkpt lat="49.80514" lon="5.04713">
        <ele>310.16</ele>
        <time>2013-04-30T07:43:47Z</time>
      </trkpt>
      <trkpt lat="49.80524" lon="5.04757">
        <ele>302.95</ele>
        <time>2013-04-30T07:44:38Z</time>
      </trkpt>
      <trkpt lat="49.80525" lon="5.0476">
        <ele>301.03</ele>
        <time>2013-04-30T07:44:39Z</time>
      </trkpt>
      <trkpt lat="49.80526" lon="5.04761">
        <ele>301.03</ele>
        <time>2013-04-30T07:44:40Z</time>
      </trkpt>
      <trkpt lat="49.80535" lon="5.04734">
        <ele>290.46</ele>
        <time>2013-04-30T07:44:47Z</time>
      </trkpt>
      <trkpt lat="49.80535" lon="5.04732">
        <ele>290.46</ele>
        <time>2013-04-30T07:44:48Z</time>
      </trkpt>
      <trkpt lat="49.80543" lon="5.04711">
        <ele>289.01</ele>
        <time>2013-04-30T07:45:03Z</time>
      </trkpt>
      <trkpt lat="49.8053" lon="5.0468">
        <ele>282.28</ele>
        <time>2013-04-30T07:45:10Z</time>
      </trkpt>
      <trkpt lat="49.8053" lon="5.04678">
        <ele>281.32</ele>
        <time>2013-04-30T07:45:11Z</time>
      </trkpt>
      <trkpt lat="49.80551" lon="5.04651">
        <ele>269.79</ele>
        <time>2013-04-30T07:45:21Z</time>
      </trkpt>
      <trkpt lat="49.80532" lon="5.04611">
        <ele>259.69</ele>
        <time>2013-04-30T07:45:41Z</time>
      </trkpt>
      <trkpt lat="49.80504" lon="5.04593">
        <ele>253.93</ele>
        <time>2013-04-30T07:46:07Z</time>
      </trkpt>
      <trkpt lat="49.80504" lon="5.04591">
        <ele>252.48</ele>
        <time>2013-04-30T07:46:08Z</time>
      </trkpt>
      <trkpt lat="49.8052" lon="5.04574">
        <ele>247.68</ele>
        <time>2013-04-30T07:46:14Z</time>
      </trkpt>
      <trkpt lat="49.80521" lon="5.04572">
        <ele>246.72</ele>
        <time>2013-04-30T07:46:15Z</time>
      </trkpt>
      <trkpt lat="49.80522" lon="5.04555">
        <ele>238.54</ele>
        <time>2013-04-30T07:46:21Z</time>
      </trkpt>
      <trkpt lat="49.80521" lon="5.04553">
        <ele>237.58</ele>
        <time>2013-04-30T07:46:22Z</time>
      </trkpt>
      <trkpt lat="49.80505" lon="5.04544">
        <ele>234.7</ele>
        <time>2013-04-30T07:46:25Z</time>
      </trkpt>
      <trkpt lat="49.80486" lon="5.04522">
        <ele>229.41</ele>
        <time>2013-04-30T07:46:30Z</time>
      </trkpt>
      <trkpt lat="49.80457" lon="5.04517">
        <ele>227.97</ele>
        <time>2013-04-30T07:46:41Z</time>
      </trkpt>
      <trkpt lat="49.805" lon="5.04496">
        <ele>231.33</ele>
        <time>2013-04-30T07:49:18Z</time>
      </trkpt>
      <trkpt lat="49.80885" lon="5.04465">
        <ele>232.78</ele>
        <time>2013-04-30T07:51:58Z</time>
      </trkpt>
      <trkpt lat="49.81242" lon="5.04622">
        <ele>219.8</ele>
        <time>2013-04-30T07:53:20Z</time>
      </trkpt>
      <trkpt lat="49.81369" lon="5.04615">
        <ele>219.32</ele>
        <time>2013-04-30T07:53:48Z</time>
      </trkpt>
      <trkpt lat="49.8154" lon="5.04558">
        <ele>218.36</ele>
        <time>2013-04-30T07:54:27Z</time>
      </trkpt>
      <trkpt lat="49.81635" lon="5.04503">
        <ele>222.2</ele>
        <time>2013-04-30T07:54:55Z</time>
      </trkpt>
      <trkpt lat="49.81686" lon="5.04435">
        <ele>225.09</ele>
        <time>2013-04-30T07:55:20Z</time>
      </trkpt>
      <trkpt lat="49.81756" lon="5.04198">
        <ele>235.66</ele>
        <time>2013-04-30T07:58:57Z</time>
      </trkpt>
      <trkpt lat="49.81762" lon="5.04188">
        <ele>237.58</ele>
        <time>2013-04-30T07:59:12Z</time>
      </trkpt>
      <trkpt lat="49.81722" lon="5.04005">
        <ele>260.65</ele>
        <time>2013-04-30T08:01:49Z</time>
      </trkpt>
      <trkpt lat="49.81656" lon="5.03831">
        <ele>278.92</ele>
        <time>2013-04-30T08:03:44Z</time>
      </trkpt>
      <trkpt lat="49.81749" lon="5.03804">
        <ele>295.26</ele>
        <time>2013-04-30T08:06:51Z</time>
      </trkpt>
      <trkpt lat="49.81843" lon="5.03882">
        <ele>305.84</ele>
        <time>2013-04-30T08:08:11Z</time>
      </trkpt>
      <trkpt lat="49.81976" lon="5.04168">
        <ele>334.68</ele>
        <time>2013-04-30T08:11:02Z</time>
      </trkpt>
      <trkpt lat="49.82067" lon="5.04299">
        <ele>351.5</ele>
        <time>2013-04-30T08:12:34Z</time>
      </trkpt>
      <trkpt lat="49.82106" lon="5.04408">
        <ele>359.67</ele>
        <time>2013-04-30T08:22:11Z</time>
      </trkpt>
      <trkpt lat="49.82118" lon="5.04457">
        <ele>362.07</ele>
        <time>2013-04-30T08:22:29Z</time>
      </trkpt>
      <trkpt lat="49.8212" lon="5.04432">
        <ele>361.59</ele>
        <time>2013-04-30T08:25:30Z</time>
      </trkpt>
      <trkpt lat="49.82072" lon="5.04215">
        <ele>354.86</ele>
        <time>2013-04-30T08:28:33Z</time>
      </trkpt>
      <trkpt lat="49.81984" lon="5.0393">
        <ele>342.85</ele>
        <time>2013-04-30T08:29:01Z</time>
      </trkpt>
      <trkpt lat="49.82048" lon="5.03895">
        <ele>342.85</ele>
        <time>2013-04-30T08:29:18Z</time>
      </trkpt>
      <trkpt lat="49.82164" lon="5.03959">
        <ele>339.96</ele>
        <time>2013-04-30T08:29:49Z</time>
      </trkpt>
      <trkpt lat="49.82244" lon="5.03844">
        <ele>328.43</ele>
        <time>2013-04-30T08:30:05Z</time>
      </trkpt>
      <trkpt lat="49.8222" lon="5.03713">
        <ele>319.3</ele>
        <time>2013-04-30T08:30:20Z</time>
      </trkpt>
      <trkpt lat="49.82254" lon="5.03305">
        <ele>287.09</ele>
        <time>2013-04-30T08:31:07Z</time>
      </trkpt>
      <trkpt lat="49.82398" lon="5.03128">
        <ele>251.52</ele>
        <time>2013-04-30T08:34:15Z</time>
      </trkpt>
      <trkpt lat="49.82441" lon="5.03082">
        <ele>242.87</ele>
        <time>2013-04-30T08:35:09Z</time>
      </trkpt>
      <trkpt lat="49.82492" lon="5.03094">
        <ele>227.97</ele>
        <time>2013-04-30T08:35:58Z</time>
      </trkpt>
      <trkpt lat="49.82514" lon="5.03109">
        <ele>226.05</ele>
        <time>2013-04-30T08:38:56Z</time>
      </trkpt>
      <trkpt lat="49.82523" lon="5.03064">
        <ele>226.05</ele>
        <time>2013-04-30T08:41:16Z</time>
      </trkpt>
      <trkpt lat="49.82628" lon="5.02909">
        <ele>222.2</ele>
        <time>2013-04-30T08:41:51Z</time>
      </trkpt>
      <trkpt lat="49.82724" lon="5.02699">
        <ele>215.47</ele>
        <time>2013-04-30T08:42:25Z</time>
      </trkpt>
      <trkpt lat="49.82791" lon="5.0264">
        <ele>213.55</ele>
        <time>2013-04-30T08:42:46Z</time>
      </trkpt>
      <trkpt lat="49.82876" lon="5.02633">
        <ele>212.59</ele>
        <time>2013-04-30T08:43:07Z</time>
      </trkpt>
      <trkpt lat="49.82919" lon="5.02644">
        <ele>212.59</ele>
        <time>2013-04-30T08:43:42Z</time>
      </trkpt>
      <trkpt lat="49.82976" lon="5.02669">
        <ele>212.11</ele>
        <time>2013-04-30T08:44:05Z</time>
      </trkpt>
      <trkpt lat="49.83023" lon="5.02691">
        <ele>211.63</ele>
        <time>2013-04-30T08:44:25Z</time>
      </trkpt>
      <trkpt lat="49.83097" lon="5.02738">
        <ele>211.63</ele>
        <time>2013-04-30T08:45:16Z</time>
      </trkpt>
      <trkpt lat="49.83162" lon="5.02774">
        <ele>211.63</ele>
        <time>2013-04-30T08:45:52Z</time>
      </trkpt>
      <trkpt lat="49.83218" lon="5.0283">
        <ele>222.2</ele>
        <time>2013-04-30T08:48:06Z</time>
      </trkpt>
      <trkpt lat="49.83305" lon="5.02816">
        <ele>218.36</ele>
        <time>2013-04-30T08:48:31Z</time>
      </trkpt>
      <trkpt lat="49.83372" lon="5.02759">
        <ele>214.51</ele>
        <time>2013-04-30T08:48:42Z</time>
      </trkpt>
      <trkpt lat="49.83452" lon="5.02641">
        <ele>213.07</ele>
        <time>2013-04-30T08:49:05Z</time>
      </trkpt>
      <trkpt lat="49.83495" lon="5.02485">
        <ele>211.15</ele>
        <time>2013-04-30T08:51:10Z</time>
      </trkpt>
      <trkpt lat="49.83531" lon="5.02472">
        <ele>226.53</ele>
        <time>2013-04-30T08:54:23Z</time>
      </trkpt>
      <trkpt lat="49.8355" lon="5.02454">
        <ele>236.62</ele>
        <time>2013-04-30T08:55:57Z</time>
      </trkpt>
      <trkpt lat="49.83555" lon="5.02398">
        <ele>241.91</ele>
        <time>2013-04-30T08:56:52Z</time>
      </trkpt>
      <trkpt lat="49.83551" lon="5.02344">
        <ele>247.68</ele>
        <time>2013-04-30T08:57:39Z</time>
      </trkpt>
      <trkpt lat="49.83546" lon="5.02224">
        <ele>245.27</ele>
        <time>2013-04-30T08:59:52Z</time>
      </trkpt>
      <trkpt lat="49.83556" lon="5.02162">
        <ele>247.68</ele>
        <time>2013-04-30T09:00:29Z</time>
      </trkpt>
      <trkpt lat="49.83538" lon="5.02025">
        <ele>255.37</ele>
        <time>2013-04-30T09:01:27Z</time>
      </trkpt>
      <trkpt lat="49.83517" lon="5.01968">
        <ele>259.69</ele>
        <time>2013-04-30T09:01:54Z</time>
      </trkpt>
      <trkpt lat="49.83484" lon="5.01894">
        <ele>265.46</ele>
        <time>2013-04-30T09:02:34Z</time>
      </trkpt>
      <trkpt lat="49.83485" lon="5.01876">
        <ele>268.35</ele>
        <time>2013-04-30T09:02:51Z</time>
      </trkpt>
      <trkpt lat="49.83598" lon="5.01984">
        <ele>293.82</ele>
        <time>2013-04-30T09:04:44Z</time>
      </trkpt>
      <trkpt lat="49.83621" lon="5.02031">
        <ele>298.15</ele>
        <time>2013-04-30T09:05:10Z</time>
      </trkpt>
      <trkpt lat="49.83678" lon="5.02121">
        <ele>309.2</ele>
        <time>2013-04-30T09:06:19Z</time>
      </trkpt>
      <trkpt lat="49.8368" lon="5.02244">
        <ele>314.49</ele>
        <time>2013-04-30T09:07:23Z</time>
      </trkpt>
      <trkpt lat="49.83704" lon="5.0229">
        <ele>319.3</ele>
        <time>2013-04-30T09:07:47Z</time>
      </trkpt>
      <trkpt lat="49.83736" lon="5.02257">
        <ele>321.22</ele>
        <time>2013-04-30T09:08:32Z</time>
      </trkpt>
      <trkpt lat="49.83747" lon="5.02214">
        <ele>321.7</ele>
        <time>2013-04-30T09:09:13Z</time>
      </trkpt>
      <trkpt lat="49.83792" lon="5.02143">
        <ele>321.7</ele>
        <time>2013-04-30T09:09:35Z</time>
      </trkpt>
      <trkpt lat="49.83799" lon="5.02044">
        <ele>322.66</ele>
        <time>2013-04-30T09:09:54Z</time>
      </trkpt>
      <trkpt lat="49.838" lon="5.01909">
        <ele>326.99</ele>
        <time>2013-04-30T09:10:30Z</time>
      </trkpt>
      <trkpt lat="49.8379" lon="5.01804">
        <ele>329.87</ele>
        <time>2013-04-30T09:10:57Z</time>
      </trkpt>
      <trkpt lat="49.83798" lon="5.01775">
        <ele>329.87</ele>
        <time>2013-04-30T09:11:05Z</time>
      </trkpt>
      <trkpt lat="49.83813" lon="5.01778">
        <ele>328.91</ele>
        <time>2013-04-30T09:11:09Z</time>
      </trkpt>
      <trkpt lat="49.83847" lon="5.01815">
        <ele>328.91</ele>
        <time>2013-04-30T09:11:25Z</time>
      </trkpt>
      <trkpt lat="49.83866" lon="5.01841">
        <ele>325.54</ele>
        <time>2013-04-30T09:11:34Z</time>
      </trkpt>
      <trkpt lat="49.83932" lon="5.01964">
        <ele>327.47</ele>
        <time>2013-04-30T09:12:07Z</time>
      </trkpt>
      <trkpt lat="49.83947" lon="5.01956">
        <ele>330.83</ele>
        <time>2013-04-30T09:12:25Z</time>
      </trkpt>
      <trkpt lat="49.8395" lon="5.01923">
        <ele>334.2</ele>
        <time>2013-04-30T09:12:37Z</time>
      </trkpt>
      <trkpt lat="49.83876" lon="5.01724">
        <ele>349.1</ele>
        <time>2013-04-30T09:14:00Z</time>
      </trkpt>
      <trkpt lat="49.83892" lon="5.01569">
        <ele>358.71</ele>
        <time>2013-04-30T09:14:56Z</time>
      </trkpt>
      <trkpt lat="49.83892" lon="5.01449">
        <ele>368.8</ele>
        <time>2013-04-30T09:15:41Z</time>
      </trkpt>
      <trkpt lat="49.83868" lon="5.01269">
        <ele>380.82</ele>
        <time>2013-04-30T09:16:46Z</time>
      </trkpt>
      <trkpt lat="49.83885" lon="5.00896">
        <ele>378.9</ele>
        <time>2013-04-30T09:18:10Z</time>
      </trkpt>
      <trkpt lat="49.8398" lon="5.00746">
        <ele>367.36</ele>
        <time>2013-04-30T09:18:24Z</time>
      </trkpt>
      <trkpt lat="49.84037" lon="5.00513">
        <ele>350.54</ele>
        <time>2013-04-30T09:29:22Z</time>
      </trkpt>
      <trkpt lat="49.84027" lon="5.00484">
        <ele>349.58</ele>
        <time>2013-04-30T09:29:35Z</time>
      </trkpt>
      <trkpt lat="49.83998" lon="5.00461">
        <ele>347.65</ele>
        <time>2013-04-30T09:29:43Z</time>
      </trkpt>
      <trkpt lat="49.83961" lon="5.00311">
        <ele>340.92</ele>
        <time>2013-04-30T09:30:16Z</time>
      </trkpt>
      <trkpt lat="49.83966" lon="5.00111">
        <ele>333.71</ele>
        <time>2013-04-30T09:31:05Z</time>
      </trkpt>
      <trkpt lat="49.8399" lon="5.00018">
        <ele>330.35</ele>
        <time>2013-04-30T09:31:20Z</time>
      </trkpt>
      <trkpt lat="49.83976" lon="4.99938">
        <ele>319.78</ele>
        <time>2013-04-30T09:35:24Z</time>
      </trkpt>
      <trkpt lat="49.83969" lon="4.99868">
        <ele>308.72</ele>
        <time>2013-04-30T09:35:30Z</time>
      </trkpt>
      <trkpt lat="49.83956" lon="4.99849">
        <ele>302.95</ele>
        <time>2013-04-30T09:35:47Z</time>
      </trkpt>
      <trkpt lat="49.83935" lon="4.99824">
        <ele>296.22</ele>
        <time>2013-04-30T09:35:54Z</time>
      </trkpt>
      <trkpt lat="49.83912" lon="4.99726">
        <ele>285.65</ele>
        <time>2013-04-30T09:36:05Z</time>
      </trkpt>
      <trkpt lat="49.8388" lon="4.99665">
        <ele>279.88</ele>
        <time>2013-04-30T09:36:12Z</time>
      </trkpt>
      <trkpt lat="49.83846" lon="4.99633">
        <ele>269.31</ele>
        <time>2013-04-30T09:36:18Z</time>
      </trkpt>
      <trkpt lat="49.83794" lon="4.99589">
        <ele>255.37</ele>
        <time>2013-04-30T09:36:27Z</time>
      </trkpt>
      <trkpt lat="49.8377" lon="4.99571">
        <ele>253.44</ele>
        <time>2013-04-30T09:37:13Z</time>
      </trkpt>
      <trkpt lat="49.83736" lon="4.99505">
        <ele>237.58</ele>
        <time>2013-04-30T09:37:27Z</time>
      </trkpt>
      <trkpt lat="49.83712" lon="4.99467">
        <ele>228.45</ele>
        <time>2013-04-30T09:38:52Z</time>
      </trkpt>
      <trkpt lat="49.83676" lon="4.99464">
        <ele>215.47</ele>
        <time>2013-04-30T09:39:04Z</time>
      </trkpt>
      <trkpt lat="49.83642" lon="4.99439">
        <ele>209.22</ele>
        <time>2013-04-30T09:39:15Z</time>
      </trkpt>
      <trkpt lat="49.83645" lon="4.99414">
        <ele>209.22</ele>
        <time>2013-04-30T09:39:29Z</time>
      </trkpt>
      <trkpt lat="49.83581" lon="4.99415">
        <ele>206.82</ele>
        <time>2013-04-30T09:40:13Z</time>
      </trkpt>
      <trkpt lat="49.83492" lon="4.99427">
        <ele>205.86</ele>
        <time>2013-04-30T09:40:32Z</time>
      </trkpt>
      <trkpt lat="49.83429" lon="4.99453">
        <ele>203.94</ele>
        <time>2013-04-30T09:40:47Z</time>
      </trkpt>
      <trkpt lat="49.83311" lon="4.99473">
        <ele>203.46</ele>
        <time>2013-04-30T09:41:15Z</time>
      </trkpt>
      <trkpt lat="49.83224" lon="4.99487">
        <ele>204.42</ele>
        <time>2013-04-30T09:41:36Z</time>
      </trkpt>
      <trkpt lat="49.83123" lon="4.99511">
        <ele>204.9</ele>
        <time>2013-04-30T09:42:02Z</time>
      </trkpt>
      <trkpt lat="49.82987" lon="4.99508">
        <ele>203.46</ele>
        <time>2013-04-30T09:42:32Z</time>
      </trkpt>
      <trkpt lat="49.82859" lon="4.99478">
        <ele>202.98</ele>
        <time>2013-04-30T09:43:03Z</time>
      </trkpt>
      <trkpt lat="49.82727" lon="4.99386">
        <ele>202.49</ele>
        <time>2013-04-30T09:43:36Z</time>
      </trkpt>
      <trkpt lat="49.82608" lon="4.99275">
        <ele>204.42</ele>
        <time>2013-04-30T09:44:12Z</time>
      </trkpt>
      <trkpt lat="49.82568" lon="4.99137">
        <ele>210.67</ele>
        <time>2013-04-30T09:44:54Z</time>
      </trkpt>
      <trkpt lat="49.82595" lon="4.98943">
        <ele>217.88</ele>
        <time>2013-04-30T09:45:44Z</time>
      </trkpt>
      <trkpt lat="49.82675" lon="4.98768">
        <ele>226.53</ele>
        <time>2013-04-30T09:46:42Z</time>
      </trkpt>
      <trkpt lat="49.82726" lon="4.98731">
        <ele>228.93</ele>
        <time>2013-04-30T09:47:07Z</time>
      </trkpt>
      <trkpt lat="49.82799" lon="4.98708">
        <ele>232.78</ele>
        <time>2013-04-30T09:47:36Z</time>
      </trkpt>
      <trkpt lat="49.8286" lon="4.98695">
        <ele>237.58</ele>
        <time>2013-04-30T09:48:02Z</time>
      </trkpt>
      <trkpt lat="49.82969" lon="4.98694">
        <ele>243.35</ele>
        <time>2013-04-30T09:48:49Z</time>
      </trkpt>
      <trkpt lat="49.83048" lon="4.9871">
        <ele>246.72</ele>
        <time>2013-04-30T09:49:21Z</time>
      </trkpt>
      <trkpt lat="49.83105" lon="4.98723">
        <ele>250.56</ele>
        <time>2013-04-30T09:49:45Z</time>
      </trkpt>
      <trkpt lat="49.8315" lon="4.98742">
        <ele>253.93</ele>
        <time>2013-04-30T09:50:07Z</time>
      </trkpt>
      <trkpt lat="49.83169" lon="4.98768">
        <ele>254.89</ele>
        <time>2013-04-30T09:50:18Z</time>
      </trkpt>
      <trkpt lat="49.83172" lon="4.98771">
        <ele>254.89</ele>
        <time>2013-04-30T09:50:20Z</time>
      </trkpt>
      <trkpt lat="49.83334" lon="4.98831">
        <ele>264.5</ele>
        <time>2013-04-30T09:51:28Z</time>
      </trkpt>
      <trkpt lat="49.83388" lon="4.98857">
        <ele>267.38</ele>
        <time>2013-04-30T09:51:49Z</time>
      </trkpt>
      <trkpt lat="49.83455" lon="4.98869">
        <ele>271.23</ele>
        <time>2013-04-30T09:52:15Z</time>
      </trkpt>
      <trkpt lat="49.83574" lon="4.98845">
        <ele>277.96</ele>
        <time>2013-04-30T09:53:01Z</time>
      </trkpt>
      <trkpt lat="49.83652" lon="4.98885">
        <ele>283.73</ele>
        <time>2013-04-30T09:53:35Z</time>
      </trkpt>
      <trkpt lat="49.837" lon="4.98934">
        <ele>287.09</ele>
        <time>2013-04-30T09:53:57Z</time>
      </trkpt>
      <trkpt lat="49.83777" lon="4.99071">
        <ele>293.34</ele>
        <time>2013-04-30T09:55:51Z</time>
      </trkpt>
      <trkpt lat="49.83795" lon="4.99043">
        <ele>292.38</ele>
        <time>2013-04-30T09:56:06Z</time>
      </trkpt>
      <trkpt lat="49.8379" lon="4.99001">
        <ele>289.01</ele>
        <time>2013-04-30T09:56:10Z</time>
      </trkpt>
      <trkpt lat="49.83778" lon="4.98972">
        <ele>286.61</ele>
        <time>2013-04-30T09:56:13Z</time>
      </trkpt>
      <trkpt lat="49.83794" lon="4.9892">
        <ele>282.77</ele>
        <time>2013-04-30T09:56:18Z</time>
      </trkpt>
      <trkpt lat="49.83806" lon="4.98859">
        <ele>274.11</ele>
        <time>2013-04-30T09:56:23Z</time>
      </trkpt>
      <trkpt lat="49.83808" lon="4.98763">
        <ele>262.1</ele>
        <time>2013-04-30T09:56:47Z</time>
      </trkpt>
      <trkpt lat="49.83713" lon="4.98739">
        <ele>231.81</ele>
        <time>2013-04-30T09:57:09Z</time>
      </trkpt>
      <trkpt lat="49.83664" lon="4.98726">
        <ele>219.32</ele>
        <time>2013-04-30T09:57:17Z</time>
      </trkpt>
      <trkpt lat="49.83612" lon="4.98705">
        <ele>207.78</ele>
        <time>2013-04-30T09:57:39Z</time>
      </trkpt>
      <trkpt lat="49.83599" lon="4.98688">
        <ele>204.9</ele>
        <time>2013-04-30T09:57:42Z</time>
      </trkpt>
      <trkpt lat="49.83568" lon="4.98556">
        <ele>202.01</ele>
        <time>2013-04-30T09:58:03Z</time>
      </trkpt>
      <trkpt lat="49.8371" lon="4.98562">
        <ele>201.05</ele>
        <time>2013-04-30T09:58:58Z</time>
      </trkpt>
      <trkpt lat="49.83813" lon="4.98597">
        <ele>201.53</ele>
        <time>2013-04-30T09:59:25Z</time>
      </trkpt>
      <trkpt lat="49.83903" lon="4.98541">
        <ele>201.05</ele>
        <time>2013-04-30T09:59:50Z</time>
      </trkpt>
      <trkpt lat="49.84045" lon="4.98409">
        <ele>196.73</ele>
        <time>2013-04-30T10:00:35Z</time>
      </trkpt>
      <trkpt lat="49.84128" lon="4.98351">
        <ele>211.63</ele>
        <time>2013-04-30T10:01:11Z</time>
      </trkpt>
      <trkpt lat="49.84291" lon="4.98211">
        <ele>206.34</ele>
        <time>2013-04-30T10:02:04Z</time>
      </trkpt>
      <trkpt lat="49.84602" lon="4.98101">
        <ele>209.7</ele>
        <time>2013-04-30T10:03:06Z</time>
      </trkpt>
      <trkpt lat="49.84692" lon="4.98023">
        <ele>210.19</ele>
        <time>2013-04-30T10:03:24Z</time>
      </trkpt>
      <trkpt lat="49.84758" lon="4.97927">
        <ele>209.22</ele>
        <time>2013-04-30T10:03:40Z</time>
      </trkpt>
      <trkpt lat="49.848" lon="4.97823">
        <ele>209.22</ele>
        <time>2013-04-30T10:03:54Z</time>
      </trkpt>
      <trkpt lat="49.84811" lon="4.9771">
        <ele>208.26</ele>
        <time>2013-04-30T10:04:08Z</time>
      </trkpt>
      <trkpt lat="49.84777" lon="4.97517">
        <ele>207.78</ele>
        <time>2013-04-30T10:04:36Z</time>
      </trkpt>
      <trkpt lat="49.84615" lon="4.97126">
        <ele>204.42</ele>
        <time>2013-04-30T10:05:38Z</time>
      </trkpt>
      <trkpt lat="49.84618" lon="4.97085">
        <ele>204.9</ele>
        <time>2013-04-30T10:05:43Z</time>
      </trkpt>
      <trkpt lat="49.84701" lon="4.96944">
        <ele>205.86</ele>
        <time>2013-04-30T10:07:14Z</time>
      </trkpt>
      <trkpt lat="49.84503" lon="4.96905">
        <ele>204.42</ele>
        <time>2013-04-30T10:08:29Z</time>
      </trkpt>
      <trkpt lat="49.84529" lon="4.96811">
        <ele>202.01</ele>
        <time>2013-04-30T10:08:47Z</time>
      </trkpt>
      <trkpt lat="49.84525" lon="4.96807">
        <ele>202.49</ele>
        <time>2013-04-30T10:08:49Z</time>
      </trkpt>
      <trkpt lat="49.84496" lon="4.96834">
        <ele>202.98</ele>
        <time>2013-04-30T10:09:01Z</time>
      </trkpt>
      <trkpt lat="49.84492" lon="4.96828">
        <ele>204.42</ele>
        <time>2013-04-30T10:09:46Z</time>
      </trkpt>
      <trkpt lat="49.84497" lon="4.96821">
        <ele>206.34</ele>
        <time>2013-04-30T10:09:52Z</time>
      </trkpt>
      <trkpt lat="49.84497" lon="4.96813">
        <ele>209.7</ele>
        <time>2013-04-30T10:10:02Z</time>
      </trkpt>
      <trkpt lat="49.84482" lon="4.96814">
        <ele>213.07</ele>
        <time>2013-04-30T10:10:19Z</time>
      </trkpt>
      <trkpt lat="49.8449" lon="4.96801">
        <ele>217.4</ele>
        <time>2013-04-30T10:10:35Z</time>
      </trkpt>
      <trkpt lat="49.8449" lon="4.96788">
        <ele>220.28</ele>
        <time>2013-04-30T10:10:50Z</time>
      </trkpt>
      <trkpt lat="49.84476" lon="4.96786">
        <ele>227.97</ele>
        <time>2013-04-30T10:11:47Z</time>
      </trkpt>
      <trkpt lat="49.84469" lon="4.96774">
        <ele>231.33</ele>
        <time>2013-04-30T10:12:18Z</time>
      </trkpt>
      <trkpt lat="49.84461" lon="4.9676">
        <ele>237.58</ele>
        <time>2013-04-30T10:12:41Z</time>
      </trkpt>
      <trkpt lat="49.84478" lon="4.9674">
        <ele>246.72</ele>
        <time>2013-04-30T10:13:40Z</time>
      </trkpt>
      <trkpt lat="49.84492" lon="4.96743">
        <ele>251.52</ele>
        <time>2013-04-30T10:14:08Z</time>
      </trkpt>
      <trkpt lat="49.845" lon="4.96734">
        <ele>259.21</ele>
        <time>2013-04-30T10:14:45Z</time>
      </trkpt>
      <trkpt lat="49.84493" lon="4.96709">
        <ele>269.31</ele>
        <time>2013-04-30T10:15:38Z</time>
      </trkpt>
      <trkpt lat="49.84503" lon="4.9669">
        <ele>274.59</ele>
        <time>2013-04-30T10:16:12Z</time>
      </trkpt>
      <trkpt lat="49.84521" lon="4.96694">
        <ele>282.28</ele>
        <time>2013-04-30T10:16:50Z</time>
      </trkpt>
      <trkpt lat="49.84527" lon="4.96651">
        <ele>291.42</ele>
        <time>2013-04-30T10:18:10Z</time>
      </trkpt>
      <trkpt lat="49.84558" lon="4.96621">
        <ele>290.46</ele>
        <time>2013-04-30T10:21:45Z</time>
      </trkpt>
      <trkpt lat="49.84834" lon="4.96563">
        <ele>300.55</ele>
        <time>2013-04-30T10:25:14Z</time>
      </trkpt>
      <trkpt lat="49.84944" lon="4.96262">
        <ele>289.97</ele>
        <time>2013-04-30T10:46:11Z</time>
      </trkpt>
      <trkpt lat="49.85147" lon="4.96377">
        <ele>259.21</ele>
        <time>2013-04-30T10:47:10Z</time>
      </trkpt>
      <trkpt lat="49.85206" lon="4.96425">
        <ele>246.72</ele>
        <time>2013-04-30T10:47:21Z</time>
      </trkpt>
      <trkpt lat="49.8526" lon="4.9658">
        <ele>227.01</ele>
        <time>2013-04-30T10:47:34Z</time>
      </trkpt>
      <trkpt lat="49.85272" lon="4.96624">
        <ele>220.28</ele>
        <time>2013-04-30T10:48:02Z</time>
      </trkpt>
      <trkpt lat="49.85297" lon="4.96643">
        <ele>215.95</ele>
        <time>2013-04-30T10:48:06Z</time>
      </trkpt>
      <trkpt lat="49.85339" lon="4.96633">
        <ele>187.59</ele>
        <time>2013-04-30T12:41:19Z</time>
      </trkpt>
      <trkpt lat="49.85341" lon="4.96699">
        <ele>185.67</ele>
        <time>2013-04-30T12:41:30Z</time>
      </trkpt>
      <trkpt lat="49.85342" lon="4.96701">
        <ele>185.67</ele>
        <time>2013-04-30T12:41:31Z</time>
      </trkpt>
      <trkpt lat="49.85395" lon="4.96792">
        <ele>189.52</ele>
        <time>2013-04-30T12:41:58Z</time>
      </trkpt>
      <trkpt lat="49.85397" lon="4.96791">
        <ele>189.52</ele>
        <time>2013-04-30T12:42:00Z</time>
      </trkpt>
      <trkpt lat="49.85479" lon="4.96681">
        <ele>190</ele>
        <time>2013-04-30T12:42:31Z</time>
      </trkpt>
      <trkpt lat="49.85528" lon="4.9656">
        <ele>188.56</ele>
        <time>2013-04-30T12:42:48Z</time>
      </trkpt>
      <trkpt lat="49.85598" lon="4.96341">
        <ele>187.59</ele>
        <time>2013-04-30T12:43:18Z</time>
      </trkpt>
      <trkpt lat="49.85714" lon="4.95872">
        <ele>187.59</ele>
        <time>2013-04-30T12:44:35Z</time>
      </trkpt>
      <trkpt lat="49.85722" lon="4.95576">
        <ele>187.11</ele>
        <time>2013-04-30T12:46:43Z</time>
      </trkpt>
      <trkpt lat="49.85689" lon="4.95449">
        <ele>186.63</ele>
        <time>2013-04-30T12:47:03Z</time>
      </trkpt>
      <trkpt lat="49.85596" lon="4.95292">
        <ele>187.11</ele>
        <time>2013-04-30T12:47:35Z</time>
      </trkpt>
      <trkpt lat="49.85494" lon="4.95115">
        <ele>187.11</ele>
        <time>2013-04-30T12:48:10Z</time>
      </trkpt>
      <trkpt lat="49.85371" lon="4.94964">
        <ele>187.11</ele>
        <time>2013-04-30T12:48:44Z</time>
      </trkpt>
      <trkpt lat="49.85253" lon="4.94823">
        <ele>186.63</ele>
        <time>2013-04-30T12:49:17Z</time>
      </trkpt>
      <trkpt lat="49.85153" lon="4.94508">
        <ele>187.59</ele>
        <time>2013-04-30T12:50:06Z</time>
      </trkpt>
      <trkpt lat="49.85106" lon="4.94304">
        <ele>190</ele>
        <time>2013-04-30T12:50:37Z</time>
      </trkpt>
      <trkpt lat="49.85047" lon="4.93924">
        <ele>190.96</ele>
        <time>2013-04-30T12:51:38Z</time>
      </trkpt>
      <trkpt lat="49.85058" lon="4.93645">
        <ele>185.19</ele>
        <time>2013-04-30T12:52:09Z</time>
      </trkpt>
      <trkpt lat="49.8508" lon="4.93585">
        <ele>184.71</ele>
        <time>2013-04-30T12:52:16Z</time>
      </trkpt>
      <trkpt lat="49.85155" lon="4.93439">
        <ele>182.79</ele>
        <time>2013-04-30T12:52:40Z</time>
      </trkpt>
      <trkpt lat="49.8519" lon="4.93402">
        <ele>182.79</ele>
        <time>2013-04-30T12:52:49Z</time>
      </trkpt>
      <trkpt lat="49.85256" lon="4.93366">
        <ele>182.79</ele>
        <time>2013-04-30T12:53:05Z</time>
      </trkpt>
      <trkpt lat="49.85326" lon="4.93339">
        <ele>182.79</ele>
        <time>2013-04-30T12:53:21Z</time>
      </trkpt>
      <trkpt lat="49.85459" lon="4.93316">
        <ele>182.79</ele>
        <time>2013-04-30T12:53:52Z</time>
      </trkpt>
      <trkpt lat="49.85509" lon="4.9332">
        <ele>183.27</ele>
        <time>2013-04-30T12:54:04Z</time>
      </trkpt>
      <trkpt lat="49.85593" lon="4.93327">
        <ele>183.27</ele>
        <time>2013-04-30T12:54:24Z</time>
      </trkpt>
      <trkpt lat="49.85712" lon="4.93359">
        <ele>182.79</ele>
        <time>2013-04-30T12:54:52Z</time>
      </trkpt>
      <trkpt lat="49.85832" lon="4.93385">
        <ele>183.27</ele>
        <time>2013-04-30T12:55:20Z</time>
      </trkpt>
      <trkpt lat="49.85889" lon="4.93378">
        <ele>183.27</ele>
        <time>2013-04-30T12:55:31Z</time>
      </trkpt>
      <trkpt lat="49.85902" lon="4.9339">
        <ele>183.27</ele>
        <time>2013-04-30T12:55:35Z</time>
      </trkpt>
      <trkpt lat="49.85898" lon="4.93444">
        <ele>185.19</ele>
        <time>2013-04-30T12:55:46Z</time>
      </trkpt>
      <trkpt lat="49.85908" lon="4.93459">
        <ele>186.15</ele>
        <time>2013-04-30T12:55:53Z</time>
      </trkpt>
      <trkpt lat="49.85936" lon="4.93476">
        <ele>185.67</ele>
        <time>2013-04-30T12:56:03Z</time>
      </trkpt>
      <trkpt lat="49.86009" lon="4.93517">
        <ele>186.63</ele>
        <time>2013-04-30T12:56:23Z</time>
      </trkpt>
      <trkpt lat="49.86027" lon="4.93527">
        <ele>186.15</ele>
        <time>2013-04-30T12:56:28Z</time>
      </trkpt>
      <trkpt lat="49.86137" lon="4.93579">
        <ele>185.67</ele>
        <time>2013-04-30T12:56:53Z</time>
      </trkpt>
      <trkpt lat="49.8623" lon="4.93607">
        <ele>186.15</ele>
        <time>2013-04-30T12:57:16Z</time>
      </trkpt>
      <trkpt lat="49.8634" lon="4.93621">
        <ele>185.19</ele>
        <time>2013-04-30T12:57:40Z</time>
      </trkpt>
      <trkpt lat="49.86358" lon="4.93622">
        <ele>185.67</ele>
        <time>2013-04-30T12:57:44Z</time>
      </trkpt>
      <trkpt lat="49.86484" lon="4.93614">
        <ele>185.67</ele>
        <time>2013-04-30T12:58:12Z</time>
      </trkpt>
      <trkpt lat="49.86702" lon="4.93594">
        <ele>186.63</ele>
        <time>2013-04-30T12:59:00Z</time>
      </trkpt>
      <trkpt lat="49.8676" lon="4.93582">
        <ele>186.63</ele>
        <time>2013-04-30T12:59:13Z</time>
      </trkpt>
      <trkpt lat="49.86859" lon="4.93556">
        <ele>186.63</ele>
        <time>2013-04-30T12:59:34Z</time>
      </trkpt>
      <trkpt lat="49.86892" lon="4.93543">
        <ele>187.11</ele>
        <time>2013-04-30T12:59:42Z</time>
      </trkpt>
      <trkpt lat="49.86976" lon="4.93504">
        <ele>186.63</ele>
        <time>2013-04-30T13:00:02Z</time>
      </trkpt>
      <trkpt lat="49.87035" lon="4.93453">
        <ele>187.59</ele>
        <time>2013-04-30T13:00:17Z</time>
      </trkpt>
      <trkpt lat="49.87098" lon="4.93388">
        <ele>184.71</ele>
        <time>2013-04-30T13:00:49Z</time>
      </trkpt>
      <trkpt lat="49.87098" lon="4.93388">
        <ele>188.08</ele>
        <time>2013-04-30T13:00:50Z</time>
      </trkpt>
      <trkpt lat="49.87098" lon="4.93388">
        <ele>186.63</ele>
        <time>2013-04-30T13:00:51Z</time>
      </trkpt>
      <trkpt lat="49.87107" lon="4.93356">
        <ele>184.71</ele>
        <time>2013-04-30T13:01:23Z</time>
      </trkpt>
      <trkpt lat="49.8714" lon="4.93284">
        <ele>182.79</ele>
        <time>2013-04-30T13:01:34Z</time>
      </trkpt>
      <trkpt lat="49.8716" lon="4.93267">
        <ele>182.79</ele>
        <time>2013-04-30T13:01:43Z</time>
      </trkpt>
      <trkpt lat="49.87169" lon="4.93237">
        <ele>182.79</ele>
        <time>2013-04-30T13:01:53Z</time>
      </trkpt>
      <trkpt lat="49.87169" lon="4.93211">
        <ele>183.27</ele>
        <time>2013-04-30T13:02:01Z</time>
      </trkpt>
      <trkpt lat="49.87202" lon="4.93154">
        <ele>184.71</ele>
        <time>2013-04-30T13:02:22Z</time>
      </trkpt>
      <trkpt lat="49.87253" lon="4.9304">
        <ele>188.56</ele>
        <time>2013-04-30T13:02:49Z</time>
      </trkpt>
      <trkpt lat="49.87281" lon="4.93009">
        <ele>191.92</ele>
        <time>2013-04-30T13:03:04Z</time>
      </trkpt>
      <trkpt lat="49.87327" lon="4.93055">
        <ele>199.13</ele>
        <time>2013-04-30T13:04:47Z</time>
      </trkpt>
      <trkpt lat="49.87348" lon="4.93055">
        <ele>202.01</ele>
        <time>2013-04-30T13:05:01Z</time>
      </trkpt>
      <trkpt lat="49.87364" lon="4.93063">
        <ele>205.38</ele>
        <time>2013-04-30T13:05:14Z</time>
      </trkpt>
      <trkpt lat="49.87379" lon="4.93127">
        <ele>211.15</ele>
        <time>2013-04-30T13:05:44Z</time>
      </trkpt>
      <trkpt lat="49.87386" lon="4.93117">
        <ele>212.59</ele>
        <time>2013-04-30T13:05:53Z</time>
      </trkpt>
      <trkpt lat="49.87388" lon="4.93072">
        <ele>214.03</ele>
        <time>2013-04-30T13:06:10Z</time>
      </trkpt>
      <trkpt lat="49.87421" lon="4.93045">
        <ele>220.28</ele>
        <time>2013-04-30T13:06:36Z</time>
      </trkpt>
      <trkpt lat="49.87443" lon="4.93032">
        <ele>223.64</ele>
        <time>2013-04-30T13:06:53Z</time>
      </trkpt>
      <trkpt lat="49.8746" lon="4.93022">
        <ele>226.53</ele>
        <time>2013-04-30T13:07:07Z</time>
      </trkpt>
      <trkpt lat="49.87494" lon="4.93002">
        <ele>233.74</ele>
        <time>2013-04-30T13:07:38Z</time>
      </trkpt>
      <trkpt lat="49.87579" lon="4.92972">
        <ele>251.04</ele>
        <time>2013-04-30T13:08:53Z</time>
      </trkpt>
      <trkpt lat="49.87645" lon="4.92956">
        <ele>266.42</ele>
        <time>2013-04-30T13:09:51Z</time>
      </trkpt>
      <trkpt lat="49.87653" lon="4.92944">
        <ele>268.83</ele>
        <time>2013-04-30T13:10:05Z</time>
      </trkpt>
      <trkpt lat="49.87688" lon="4.92941">
        <ele>277</ele>
        <time>2013-04-30T13:10:53Z</time>
      </trkpt>
      <trkpt lat="49.87725" lon="4.92895">
        <ele>286.61</ele>
        <time>2013-04-30T13:11:42Z</time>
      </trkpt>
      <trkpt lat="49.87748" lon="4.92894">
        <ele>291.42</ele>
        <time>2013-04-30T13:12:00Z</time>
      </trkpt>
      <trkpt lat="49.87797" lon="4.92906">
        <ele>303.91</ele>
        <time>2013-04-30T13:12:48Z</time>
      </trkpt>
      <trkpt lat="49.87813" lon="4.929">
        <ele>307.28</ele>
        <time>2013-04-30T13:13:00Z</time>
      </trkpt>
      <trkpt lat="49.87843" lon="4.92875">
        <ele>318.33</ele>
        <time>2013-04-30T13:14:15Z</time>
      </trkpt>
      <trkpt lat="49.87891" lon="4.92843">
        <ele>333.23</ele>
        <time>2013-04-30T13:15:39Z</time>
      </trkpt>
      <trkpt lat="49.87936" lon="4.92833">
        <ele>347.65</ele>
        <time>2013-04-30T13:17:08Z</time>
      </trkpt>
      <trkpt lat="49.88001" lon="4.9277">
        <ele>357.75</ele>
        <time>2013-04-30T13:18:18Z</time>
      </trkpt>
      <trkpt lat="49.88066" lon="4.92725">
        <ele>358.23</ele>
        <time>2013-04-30T13:22:30Z</time>
      </trkpt>
      <trkpt lat="49.88196" lon="4.92622">
        <ele>360.15</ele>
        <time>2013-04-30T13:23:23Z</time>
      </trkpt>
      <trkpt lat="49.88222" lon="4.92567">
        <ele>361.59</ele>
        <time>2013-04-30T13:23:37Z</time>
      </trkpt>
      <trkpt lat="49.88294" lon="4.92341">
        <ele>364.48</ele>
        <time>2013-04-30T13:24:31Z</time>
      </trkpt>
      <trkpt lat="49.88445" lon="4.91878">
        <ele>352.94</ele>
        <time>2013-04-30T13:25:33Z</time>
      </trkpt>
      <trkpt lat="49.88482" lon="4.91829">
        <ele>355.83</ele>
        <time>2013-04-30T13:25:43Z</time>
      </trkpt>
      <trkpt lat="49.88654" lon="4.9153">
        <ele>374.57</ele>
        <time>2013-04-30T13:27:33Z</time>
      </trkpt>
      <trkpt lat="49.88711" lon="4.91397">
        <ele>376.49</ele>
        <time>2013-04-30T13:28:07Z</time>
      </trkpt>
      <trkpt lat="49.88595" lon="4.91308">
        <ele>369.76</ele>
        <time>2013-04-30T13:28:33Z</time>
      </trkpt>
      <trkpt lat="49.88545" lon="4.9127">
        <ele>366.4</ele>
        <time>2013-04-30T13:28:40Z</time>
      </trkpt>
      <trkpt lat="49.88215" lon="4.90919">
        <ele>348.62</ele>
        <time>2013-04-30T13:29:30Z</time>
      </trkpt>
      <trkpt lat="49.88181" lon="4.90881">
        <ele>345.73</ele>
        <time>2013-04-30T13:29:34Z</time>
      </trkpt>
      <trkpt lat="49.88155" lon="4.90852">
        <ele>341.89</ele>
        <time>2013-04-30T13:29:37Z</time>
      </trkpt>
      <trkpt lat="49.88058" lon="4.9073">
        <ele>335.16</ele>
        <time>2013-04-30T13:29:50Z</time>
      </trkpt>
      <trkpt lat="49.87995" lon="4.9068">
        <ele>333.71</ele>
        <time>2013-04-30T13:30:02Z</time>
      </trkpt>
      <trkpt lat="49.87811" lon="4.90577">
        <ele>326.99</ele>
        <time>2013-04-30T13:30:33Z</time>
      </trkpt>
      <trkpt lat="49.87747" lon="4.90545">
        <ele>323.14</ele>
        <time>2013-04-30T13:30:42Z</time>
      </trkpt>
      <trkpt lat="49.87713" lon="4.9053">
        <ele>318.81</ele>
        <time>2013-04-30T13:30:46Z</time>
      </trkpt>
      <trkpt lat="49.87678" lon="4.90502">
        <ele>315.93</ele>
        <time>2013-04-30T13:30:50Z</time>
      </trkpt>
      <trkpt lat="49.87637" lon="4.90455">
        <ele>312.57</ele>
        <time>2013-04-30T13:30:55Z</time>
      </trkpt>
      <trkpt lat="49.87615" lon="4.90444">
        <ele>310.64</ele>
        <time>2013-04-30T13:30:57Z</time>
      </trkpt>
      <trkpt lat="49.87571" lon="4.90435">
        <ele>307.28</ele>
        <time>2013-04-30T13:31:01Z</time>
      </trkpt>
      <trkpt lat="49.8754" lon="4.90421">
        <ele>303.43</ele>
        <time>2013-04-30T13:31:04Z</time>
      </trkpt>
      <trkpt lat="49.87507" lon="4.90392">
        <ele>300.07</ele>
        <time>2013-04-30T13:31:07Z</time>
      </trkpt>
      <trkpt lat="49.87445" lon="4.90326">
        <ele>294.3</ele>
        <time>2013-04-30T13:31:14Z</time>
      </trkpt>
      <trkpt lat="49.87336" lon="4.90365">
        <ele>290.94</ele>
        <time>2013-04-30T13:31:26Z</time>
      </trkpt>
      <trkpt lat="49.87212" lon="4.90367">
        <ele>285.65</ele>
        <time>2013-04-30T13:31:41Z</time>
      </trkpt>
      <trkpt lat="49.86979" lon="4.90338">
        <ele>261.62</ele>
        <time>2013-04-30T13:32:05Z</time>
      </trkpt>
      <trkpt lat="49.86881" lon="4.90306">
        <ele>246.72</ele>
        <time>2013-04-30T13:32:13Z</time>
      </trkpt>
      <trkpt lat="49.86692" lon="4.90143">
        <ele>214.51</ele>
        <time>2013-04-30T13:32:30Z</time>
      </trkpt>
      <trkpt lat="49.86678" lon="4.90116">
        <ele>211.15</ele>
        <time>2013-04-30T13:32:33Z</time>
      </trkpt>
      <trkpt lat="49.86659" lon="4.90043">
        <ele>205.38</ele>
        <time>2013-04-30T13:32:47Z</time>
      </trkpt>
      <trkpt lat="49.86643" lon="4.90075">
        <ele>202.98</ele>
        <time>2013-04-30T13:34:11Z</time>
      </trkpt>
      <trkpt lat="49.86616" lon="4.90141">
        <ele>200.57</ele>
        <time>2013-04-30T13:34:23Z</time>
      </trkpt>
      <trkpt lat="49.86573" lon="4.90187">
        <ele>196.25</ele>
        <time>2013-04-30T13:34:32Z</time>
      </trkpt>
      <trkpt lat="49.86279" lon="4.90214">
        <ele>192.4</ele>
        <time>2013-04-30T13:35:18Z</time>
      </trkpt>
      <trkpt lat="49.86257" lon="4.90194">
        <ele>192.4</ele>
        <time>2013-04-30T13:35:24Z</time>
      </trkpt>
      <trkpt lat="49.86259" lon="4.90093">
        <ele>193.84</ele>
        <time>2013-04-30T13:35:41Z</time>
      </trkpt>
      <trkpt lat="49.86341" lon="4.90033">
        <ele>198.17</ele>
        <time>2013-04-30T13:36:09Z</time>
      </trkpt>
      <trkpt lat="49.86381" lon="4.89976">
        <ele>199.61</ele>
        <time>2013-04-30T13:36:26Z</time>
      </trkpt>
      <trkpt lat="49.86396" lon="4.89911">
        <ele>202.01</ele>
        <time>2013-04-30T13:36:44Z</time>
      </trkpt>
      <trkpt lat="49.86406" lon="4.89743">
        <ele>207.78</ele>
        <time>2013-04-30T13:37:28Z</time>
      </trkpt>
      <trkpt lat="49.86414" lon="4.89688">
        <ele>209.22</ele>
        <time>2013-04-30T13:37:43Z</time>
      </trkpt>
      <trkpt lat="49.8643" lon="4.89628">
        <ele>212.11</ele>
        <time>2013-04-30T13:37:59Z</time>
      </trkpt>
      <trkpt lat="49.86449" lon="4.89577">
        <ele>213.55</ele>
        <time>2013-04-30T13:38:13Z</time>
      </trkpt>
      <trkpt lat="49.86471" lon="4.89523">
        <ele>215.47</ele>
        <time>2013-04-30T13:38:28Z</time>
      </trkpt>
      <trkpt lat="49.86489" lon="4.89473">
        <ele>217.4</ele>
        <time>2013-04-30T13:38:43Z</time>
      </trkpt>
      <trkpt lat="49.86512" lon="4.89418">
        <ele>220.28</ele>
        <time>2013-04-30T13:38:59Z</time>
      </trkpt>
      <trkpt lat="49.86542" lon="4.89371">
        <ele>222.68</ele>
        <time>2013-04-30T13:39:14Z</time>
      </trkpt>
      <trkpt lat="49.86575" lon="4.89314">
        <ele>226.05</ele>
        <time>2013-04-30T13:39:33Z</time>
      </trkpt>
      <trkpt lat="49.86611" lon="4.89263">
        <ele>227.97</ele>
        <time>2013-04-30T13:39:51Z</time>
      </trkpt>
      <trkpt lat="49.86653" lon="4.89228">
        <ele>230.85</ele>
        <time>2013-04-30T13:40:10Z</time>
      </trkpt>
      <trkpt lat="49.86687" lon="4.89217">
        <ele>232.78</ele>
        <time>2013-04-30T13:40:23Z</time>
      </trkpt>
      <trkpt lat="49.86723" lon="4.89192">
        <ele>235.18</ele>
        <time>2013-04-30T13:40:39Z</time>
      </trkpt>
      <trkpt lat="49.86764" lon="4.89135">
        <ele>239.51</ele>
        <time>2013-04-30T13:41:02Z</time>
      </trkpt>
      <trkpt lat="49.86758" lon="4.89123">
        <ele>239.99</ele>
        <time>2013-04-30T13:41:09Z</time>
      </trkpt>
      <trkpt lat="49.86724" lon="4.89118">
        <ele>245.27</ele>
        <time>2013-04-30T13:41:32Z</time>
      </trkpt>
      <trkpt lat="49.86652" lon="4.89118">
        <ele>246.72</ele>
        <time>2013-04-30T13:42:04Z</time>
      </trkpt>
      <trkpt lat="49.86615" lon="4.89111">
        <ele>245.27</ele>
        <time>2013-04-30T13:42:15Z</time>
      </trkpt>
      <trkpt lat="49.86588" lon="4.89083">
        <ele>243.35</ele>
        <time>2013-04-30T13:42:22Z</time>
      </trkpt>
      <trkpt lat="49.86537" lon="4.89034">
        <ele>239.99</ele>
        <time>2013-04-30T13:42:32Z</time>
      </trkpt>
      <trkpt lat="49.86471" lon="4.88979">
        <ele>237.1</ele>
        <time>2013-04-30T13:42:44Z</time>
      </trkpt>
      <trkpt lat="49.86414" lon="4.88907">
        <ele>235.18</ele>
        <time>2013-04-30T13:42:57Z</time>
      </trkpt>
      <trkpt lat="49.86399" lon="4.88887">
        <ele>232.78</ele>
        <time>2013-04-30T13:43:06Z</time>
      </trkpt>
      <trkpt lat="49.86368" lon="4.88843">
        <ele>231.81</ele>
        <time>2013-04-30T13:43:17Z</time>
      </trkpt>
      <trkpt lat="49.86333" lon="4.88757">
        <ele>229.41</ele>
        <time>2013-04-30T13:43:29Z</time>
      </trkpt>
      <trkpt lat="49.86308" lon="4.88705">
        <ele>227.97</ele>
        <time>2013-04-30T13:43:36Z</time>
      </trkpt>
      <trkpt lat="49.86288" lon="4.88686">
        <ele>226.53</ele>
        <time>2013-04-30T13:43:40Z</time>
      </trkpt>
      <trkpt lat="49.86239" lon="4.88665">
        <ele>224.12</ele>
        <time>2013-04-30T13:43:48Z</time>
      </trkpt>
      <trkpt lat="49.86169" lon="4.88658">
        <ele>218.36</ele>
        <time>2013-04-30T13:43:57Z</time>
      </trkpt>
      <trkpt lat="49.86102" lon="4.88672">
        <ele>210.19</ele>
        <time>2013-04-30T13:44:04Z</time>
      </trkpt>
      <trkpt lat="49.86071" lon="4.88681">
        <ele>204.42</ele>
        <time>2013-04-30T13:44:09Z</time>
      </trkpt>
      <trkpt lat="49.8607" lon="4.88674">
        <ele>203.94</ele>
        <time>2013-04-30T13:44:12Z</time>
      </trkpt>
      <trkpt lat="49.86077" lon="4.88667">
        <ele>203.94</ele>
        <time>2013-04-30T13:44:16Z</time>
      </trkpt>
      <trkpt lat="49.86086" lon="4.88659">
        <ele>202.98</ele>
        <time>2013-04-30T13:44:30Z</time>
      </trkpt>
      <trkpt lat="49.86086" lon="4.88659">
        <ele>196.73</ele>
        <time>2013-04-30T13:44:34Z</time>
      </trkpt>
      <trkpt lat="49.86098" lon="4.88649">
        <ele>202.49</ele>
        <time>2013-04-30T13:45:22Z</time>
      </trkpt>
      <trkpt lat="49.8613" lon="4.88621">
        <ele>199.13</ele>
        <time>2013-04-30T13:45:30Z</time>
      </trkpt>
      <trkpt lat="49.86154" lon="4.88604">
        <ele>197.69</ele>
        <time>2013-04-30T13:45:34Z</time>
      </trkpt>
      <trkpt lat="49.86211" lon="4.88566">
        <ele>193.84</ele>
        <time>2013-04-30T13:45:42Z</time>
      </trkpt>
      <trkpt lat="49.86247" lon="4.88548">
        <ele>190</ele>
        <time>2013-04-30T13:45:46Z</time>
      </trkpt>
      <trkpt lat="49.86281" lon="4.88537">
        <ele>186.63</ele>
        <time>2013-04-30T13:45:50Z</time>
      </trkpt>
      <trkpt lat="49.8632" lon="4.88532">
        <ele>183.27</ele>
        <time>2013-04-30T13:45:55Z</time>
      </trkpt>
      <trkpt lat="49.8634" lon="4.88531">
        <ele>180.87</ele>
        <time>2013-04-30T13:45:57Z</time>
      </trkpt>
      <trkpt lat="49.86382" lon="4.88508">
        <ele>177.02</ele>
        <time>2013-04-30T13:46:03Z</time>
      </trkpt>
      <trkpt lat="49.86384" lon="4.88499">
        <ele>177.98</ele>
        <time>2013-04-30T13:47:16Z</time>
      </trkpt>
      <trkpt lat="49.86367" lon="4.88477">
        <ele>177.5</ele>
        <time>2013-04-30T13:47:29Z</time>
      </trkpt>
      <trkpt lat="49.86329" lon="4.88494">
        <ele>178.94</ele>
        <time>2013-04-30T13:47:45Z</time>
      </trkpt>
      <trkpt lat="49.86249" lon="4.88501">
        <ele>181.83</ele>
        <time>2013-04-30T13:48:17Z</time>
      </trkpt>
      <trkpt lat="49.86222" lon="4.88479">
        <ele>185.19</ele>
        <time>2013-04-30T13:48:32Z</time>
      </trkpt>
      <trkpt lat="49.862" lon="4.88449">
        <ele>189.04</ele>
        <time>2013-04-30T13:48:50Z</time>
      </trkpt>
      <trkpt lat="49.86213" lon="4.88424">
        <ele>193.36</ele>
        <time>2013-04-30T13:49:10Z</time>
      </trkpt>
      <trkpt lat="49.86214" lon="4.88403">
        <ele>200.09</ele>
        <time>2013-04-30T13:49:52Z</time>
      </trkpt>
      <trkpt lat="49.86232" lon="4.88405">
        <ele>204.42</ele>
        <time>2013-04-30T13:50:21Z</time>
      </trkpt>
      <trkpt lat="49.86238" lon="4.88408">
        <ele>208.26</ele>
        <time>2013-04-30T13:50:34Z</time>
      </trkpt>
      <trkpt lat="49.86244" lon="4.88405">
        <ele>212.59</ele>
        <time>2013-04-30T13:51:04Z</time>
      </trkpt>
      <trkpt lat="49.86246" lon="4.88346">
        <ele>224.61</ele>
        <time>2013-04-30T13:52:26Z</time>
      </trkpt>
      <trkpt lat="49.86256" lon="4.88312">
        <ele>231.33</ele>
        <time>2013-04-30T13:53:07Z</time>
      </trkpt>
      <trkpt lat="49.86256" lon="4.88296">
        <ele>233.26</ele>
        <time>2013-04-30T13:54:01Z</time>
      </trkpt>
      <trkpt lat="49.86234" lon="4.88219">
        <ele>246.23</ele>
        <time>2013-04-30T13:55:39Z</time>
      </trkpt>
      <trkpt lat="49.86221" lon="4.88164">
        <ele>259.21</ele>
        <time>2013-04-30T13:56:44Z</time>
      </trkpt>
      <trkpt lat="49.86217" lon="4.88126">
        <ele>267.38</ele>
        <time>2013-04-30T13:57:40Z</time>
      </trkpt>
      <trkpt lat="49.86209" lon="4.88074">
        <ele>276.04</ele>
        <time>2013-04-30T13:58:26Z</time>
      </trkpt>
      <trkpt lat="49.8622" lon="4.88065">
        <ele>281.8</ele>
        <time>2013-04-30T13:58:57Z</time>
      </trkpt>
      <trkpt lat="49.86237" lon="4.88072">
        <ele>285.17</ele>
        <time>2013-04-30T13:59:26Z</time>
      </trkpt>
      <trkpt lat="49.86249" lon="4.88068">
        <ele>287.57</ele>
        <time>2013-04-30T14:00:33Z</time>
      </trkpt>
      <trkpt lat="49.86244" lon="4.88054">
        <ele>290.94</ele>
        <time>2013-04-30T14:00:50Z</time>
      </trkpt>
      <trkpt lat="49.86237" lon="4.88038">
        <ele>291.9</ele>
        <time>2013-04-30T14:01:10Z</time>
      </trkpt>
      <trkpt lat="49.86231" lon="4.87995">
        <ele>298.15</ele>
        <time>2013-04-30T14:01:41Z</time>
      </trkpt>
      <trkpt lat="49.8623" lon="4.87981">
        <ele>301.03</ele>
        <time>2013-04-30T14:01:52Z</time>
      </trkpt>
      <trkpt lat="49.86227" lon="4.87963">
        <ele>304.39</ele>
        <time>2013-04-30T14:02:01Z</time>
      </trkpt>
      <trkpt lat="49.86232" lon="4.87948">
        <ele>306.32</ele>
        <time>2013-04-30T14:02:32Z</time>
      </trkpt>
      <trkpt lat="49.86244" lon="4.87959">
        <ele>311.6</ele>
        <time>2013-04-30T14:03:03Z</time>
      </trkpt>
      <trkpt lat="49.86263" lon="4.87967">
        <ele>315.93</ele>
        <time>2013-04-30T14:03:34Z</time>
      </trkpt>
      <trkpt lat="49.86271" lon="4.87953">
        <ele>317.85</ele>
        <time>2013-04-30T14:19:17Z</time>
      </trkpt>
      <trkpt lat="49.86252" lon="4.87927">
        <ele>315.93</ele>
        <time>2013-04-30T14:19:28Z</time>
      </trkpt>
      <trkpt lat="49.8624" lon="4.87897">
        <ele>315.45</ele>
        <time>2013-04-30T14:19:36Z</time>
      </trkpt>
      <trkpt lat="49.86215" lon="4.87838">
        <ele>318.33</ele>
        <time>2013-04-30T14:19:51Z</time>
      </trkpt>
      <trkpt lat="49.86184" lon="4.87757">
        <ele>321.22</ele>
        <time>2013-04-30T14:20:25Z</time>
      </trkpt>
      <trkpt lat="49.86185" lon="4.87707">
        <ele>320.26</ele>
        <time>2013-04-30T14:20:40Z</time>
      </trkpt>
      <trkpt lat="49.86192" lon="4.87663">
        <ele>319.78</ele>
        <time>2013-04-30T14:20:54Z</time>
      </trkpt>
      <trkpt lat="49.86211" lon="4.87633">
        <ele>319.78</ele>
        <time>2013-04-30T14:21:07Z</time>
      </trkpt>
      <trkpt lat="49.86243" lon="4.87605">
        <ele>319.3</ele>
        <time>2013-04-30T14:21:20Z</time>
      </trkpt>
      <trkpt lat="49.86274" lon="4.87544">
        <ele>318.81</ele>
        <time>2013-04-30T14:21:34Z</time>
      </trkpt>
      <trkpt lat="49.86319" lon="4.87421">
        <ele>319.78</ele>
        <time>2013-04-30T14:22:00Z</time>
      </trkpt>
      <trkpt lat="49.86338" lon="4.87388">
        <ele>320.74</ele>
        <time>2013-04-30T14:22:13Z</time>
      </trkpt>
      <trkpt lat="49.86392" lon="4.87442">
        <ele>322.18</ele>
        <time>2013-04-30T14:22:38Z</time>
      </trkpt>
      <trkpt lat="49.86421" lon="4.87474">
        <ele>322.18</ele>
        <time>2013-04-30T14:22:50Z</time>
      </trkpt>
      <trkpt lat="49.86441" lon="4.87477">
        <ele>323.14</ele>
        <time>2013-04-30T14:22:57Z</time>
      </trkpt>
      <trkpt lat="49.86482" lon="4.87441">
        <ele>323.14</ele>
        <time>2013-04-30T14:23:12Z</time>
      </trkpt>
      <trkpt lat="49.8652" lon="4.87394">
        <ele>322.66</ele>
        <time>2013-04-30T14:23:25Z</time>
      </trkpt>
      <trkpt lat="49.86555" lon="4.87337">
        <ele>322.66</ele>
        <time>2013-04-30T14:23:39Z</time>
      </trkpt>
      <trkpt lat="49.86582" lon="4.87215">
        <ele>324.58</ele>
        <time>2013-04-30T14:24:03Z</time>
      </trkpt>
      <trkpt lat="49.86661" lon="4.87011">
        <ele>322.18</ele>
        <time>2013-04-30T14:24:50Z</time>
      </trkpt>
      <trkpt lat="49.86653" lon="4.86947">
        <ele>322.66</ele>
        <time>2013-04-30T14:25:27Z</time>
      </trkpt>
      <trkpt lat="49.86586" lon="4.8686">
        <ele>321.7</ele>
        <time>2013-04-30T14:25:53Z</time>
      </trkpt>
      <trkpt lat="49.8654" lon="4.86803">
        <ele>320.26</ele>
        <time>2013-04-30T14:26:07Z</time>
      </trkpt>
      <trkpt lat="49.86499" lon="4.86742">
        <ele>319.3</ele>
        <time>2013-04-30T14:26:20Z</time>
      </trkpt>
      <trkpt lat="49.8648" lon="4.86666">
        <ele>317.85</ele>
        <time>2013-04-30T14:26:34Z</time>
      </trkpt>
      <trkpt lat="49.86464" lon="4.86595">
        <ele>316.89</ele>
        <time>2013-04-30T14:26:47Z</time>
      </trkpt>
      <trkpt lat="49.86442" lon="4.86532">
        <ele>317.37</ele>
        <time>2013-04-30T14:27:00Z</time>
      </trkpt>
      <trkpt lat="49.86408" lon="4.86489">
        <ele>316.89</ele>
        <time>2013-04-30T14:27:13Z</time>
      </trkpt>
      <trkpt lat="49.86322" lon="4.8645">
        <ele>318.33</ele>
        <time>2013-04-30T14:27:38Z</time>
      </trkpt>
      <trkpt lat="49.86279" lon="4.8644">
        <ele>318.81</ele>
        <time>2013-04-30T14:27:51Z</time>
      </trkpt>
      <trkpt lat="49.86242" lon="4.86442">
        <ele>319.78</ele>
        <time>2013-04-30T14:28:05Z</time>
      </trkpt>
      <trkpt lat="49.86218" lon="4.86424">
        <ele>321.22</ele>
        <time>2013-04-30T14:28:19Z</time>
      </trkpt>
      <trkpt lat="49.86205" lon="4.86376">
        <ele>326.02</ele>
        <time>2013-04-30T14:28:41Z</time>
      </trkpt>
      <trkpt lat="49.86202" lon="4.86336">
        <ele>329.39</ele>
        <time>2013-04-30T14:28:57Z</time>
      </trkpt>
      <trkpt lat="49.86192" lon="4.86302">
        <ele>332.27</ele>
        <time>2013-04-30T14:29:13Z</time>
      </trkpt>
      <trkpt lat="49.8617" lon="4.86228">
        <ele>338.04</ele>
        <time>2013-04-30T14:29:47Z</time>
      </trkpt>
      <trkpt lat="49.86172" lon="4.86192">
        <ele>340.44</ele>
        <time>2013-04-30T14:30:01Z</time>
      </trkpt>
      <trkpt lat="49.86161" lon="4.86099">
        <ele>343.33</ele>
        <time>2013-04-30T14:30:28Z</time>
      </trkpt>
      <trkpt lat="49.86169" lon="4.86036">
        <ele>338.04</ele>
        <time>2013-04-30T14:30:53Z</time>
      </trkpt>
      <trkpt lat="49.86194" lon="4.85995">
        <ele>330.83</ele>
        <time>2013-04-30T14:30:58Z</time>
      </trkpt>
      <trkpt lat="49.86224" lon="4.85967">
        <ele>321.7</ele>
        <time>2013-04-30T14:31:04Z</time>
      </trkpt>
      <trkpt lat="49.86237" lon="4.85921">
        <ele>313.53</ele>
        <time>2013-04-30T14:31:08Z</time>
      </trkpt>
      <trkpt lat="49.86258" lon="4.85863">
        <ele>302.47</ele>
        <time>2013-04-30T14:31:16Z</time>
      </trkpt>
      <trkpt lat="49.86257" lon="4.85836">
        <ele>295.26</ele>
        <time>2013-04-30T14:31:21Z</time>
      </trkpt>
      <trkpt lat="49.86286" lon="4.85815">
        <ele>283.73</ele>
        <time>2013-04-30T14:31:35Z</time>
      </trkpt>
      <trkpt lat="49.86297" lon="4.85783">
        <ele>280.36</ele>
        <time>2013-04-30T14:31:48Z</time>
      </trkpt>
      <trkpt lat="49.8631" lon="4.85771">
        <ele>275.56</ele>
        <time>2013-04-30T14:31:51Z</time>
      </trkpt>
      <trkpt lat="49.86327" lon="4.85764">
        <ele>271.71</ele>
        <time>2013-04-30T14:31:54Z</time>
      </trkpt>
      <trkpt lat="49.86334" lon="4.85764">
        <ele>270.27</ele>
        <time>2013-04-30T14:31:55Z</time>
      </trkpt>
      <trkpt lat="49.86353" lon="4.85767">
        <ele>265.46</ele>
        <time>2013-04-30T14:31:58Z</time>
      </trkpt>
      <trkpt lat="49.86364" lon="4.85759">
        <ele>262.1</ele>
        <time>2013-04-30T14:32:01Z</time>
      </trkpt>
      <trkpt lat="49.86352" lon="4.85739">
        <ele>259.69</ele>
        <time>2013-04-30T14:32:05Z</time>
      </trkpt>
      <trkpt lat="49.86328" lon="4.85715">
        <ele>253.44</ele>
        <time>2013-04-30T14:32:10Z</time>
      </trkpt>
      <trkpt lat="49.863" lon="4.85677">
        <ele>243.83</ele>
        <time>2013-04-30T14:32:17Z</time>
      </trkpt>
      <trkpt lat="49.86314" lon="4.85633">
        <ele>228.93</ele>
        <time>2013-04-30T14:32:25Z</time>
      </trkpt>
      <trkpt lat="49.86334" lon="4.856">
        <ele>228.93</ele>
        <time>2013-04-30T14:33:05Z</time>
      </trkpt>
      <trkpt lat="49.8635" lon="4.85588">
        <ele>223.64</ele>
        <time>2013-04-30T14:33:33Z</time>
      </trkpt>
      <trkpt lat="49.86375" lon="4.85562">
        <ele>214.03</ele>
        <time>2013-04-30T14:33:42Z</time>
      </trkpt>
      <trkpt lat="49.86392" lon="4.85544">
        <ele>212.59</ele>
        <time>2013-04-30T14:33:52Z</time>
      </trkpt>
      <trkpt lat="49.86422" lon="4.85503">
        <ele>206.82</ele>
        <time>2013-04-30T14:35:05Z</time>
      </trkpt>
      <trkpt lat="49.86433" lon="4.85507">
        <ele>206.82</ele>
        <time>2013-04-30T14:35:24Z</time>
      </trkpt>
      <trkpt lat="49.86433" lon="4.85481">
        <ele>206.34</ele>
        <time>2013-04-30T14:35:36Z</time>
      </trkpt>
      <trkpt lat="49.86428" lon="4.85444">
        <ele>205.86</ele>
        <time>2013-04-30T14:36:06Z</time>
      </trkpt>
      <trkpt lat="49.86442" lon="4.85409">
        <ele>205.86</ele>
        <time>2013-04-30T14:36:18Z</time>
      </trkpt>
      <trkpt lat="49.86462" lon="4.8536">
        <ele>205.86</ele>
        <time>2013-04-30T14:36:32Z</time>
      </trkpt>
      <trkpt lat="49.86475" lon="4.85336">
        <ele>204.42</ele>
        <time>2013-04-30T14:36:46Z</time>
      </trkpt>
      <trkpt lat="49.86483" lon="4.85299">
        <ele>208.26</ele>
        <time>2013-04-30T14:37:29Z</time>
      </trkpt>
      <trkpt lat="49.86474" lon="4.85262">
        <ele>204.9</ele>
        <time>2013-04-30T14:39:11Z</time>
      </trkpt>
      <trkpt lat="49.86488" lon="4.85236">
        <ele>204.9</ele>
        <time>2013-04-30T14:39:17Z</time>
      </trkpt>
      <trkpt lat="49.8649" lon="4.85223">
        <ele>203.94</ele>
        <time>2013-04-30T14:39:19Z</time>
      </trkpt>
      <trkpt lat="49.86473" lon="4.8521">
        <ele>203.94</ele>
        <time>2013-04-30T14:39:24Z</time>
      </trkpt>
      <trkpt lat="49.86405" lon="4.85208">
        <ele>201.05</ele>
        <time>2013-04-30T14:39:37Z</time>
      </trkpt>
      <trkpt lat="49.86368" lon="4.85204">
        <ele>197.21</ele>
        <time>2013-04-30T14:39:45Z</time>
      </trkpt>
      <trkpt lat="49.86369" lon="4.852">
        <ele>196.25</ele>
        <time>2013-04-30T14:39:46Z</time>
      </trkpt>
      <trkpt lat="49.86387" lon="4.85173">
        <ele>190.48</ele>
        <time>2013-04-30T14:39:50Z</time>
      </trkpt>
      <trkpt lat="49.86425" lon="4.85121">
        <ele>181.83</ele>
        <time>2013-04-30T14:41:11Z</time>
      </trkpt>
      <trkpt lat="49.86427" lon="4.8512">
        <ele>181.83</ele>
        <time>2013-04-30T14:41:12Z</time>
      </trkpt>
      <trkpt lat="49.86455" lon="4.8511">
        <ele>182.31</ele>
        <time>2013-04-30T14:41:26Z</time>
      </trkpt>
      <trkpt lat="49.86519" lon="4.85101">
        <ele>181.83</ele>
        <time>2013-04-30T14:41:50Z</time>
      </trkpt>
      <trkpt lat="49.86574" lon="4.85052">
        <ele>184.23</ele>
        <time>2013-04-30T14:42:19Z</time>
      </trkpt>
      <trkpt lat="49.86621" lon="4.84998">
        <ele>188.56</ele>
        <time>2013-04-30T14:42:39Z</time>
      </trkpt>
      <trkpt lat="49.86623" lon="4.84995">
        <ele>189.04</ele>
        <time>2013-04-30T14:42:40Z</time>
      </trkpt>
      <trkpt lat="49.86666" lon="4.84924">
        <ele>192.4</ele>
        <time>2013-04-30T14:43:08Z</time>
      </trkpt>
      <trkpt lat="49.86686" lon="4.84856">
        <ele>194.32</ele>
        <time>2013-04-30T14:43:28Z</time>
      </trkpt>
      <trkpt lat="49.86687" lon="4.84852">
        <ele>194.8</ele>
        <time>2013-04-30T14:43:29Z</time>
      </trkpt>
      <trkpt lat="49.86782" lon="4.84778">
        <ele>195.28</ele>
        <time>2013-04-30T14:44:11Z</time>
      </trkpt>
      <trkpt lat="49.86822" lon="4.84778">
        <ele>197.21</ele>
        <time>2013-04-30T14:44:24Z</time>
      </trkpt>
      <trkpt lat="49.86885" lon="4.84724">
        <ele>200.09</ele>
        <time>2013-04-30T14:44:49Z</time>
      </trkpt>
      <trkpt lat="49.86923" lon="4.84677">
        <ele>202.98</ele>
        <time>2013-04-30T14:45:05Z</time>
      </trkpt>
      <trkpt lat="49.86952" lon="4.84648">
        <ele>206.34</ele>
        <time>2013-04-30T14:45:18Z</time>
      </trkpt>
      <trkpt lat="49.86998" lon="4.84612">
        <ele>204.9</ele>
        <time>2013-04-30T14:45:35Z</time>
      </trkpt>
      <trkpt lat="49.87047" lon="4.84582">
        <ele>202.49</ele>
        <time>2013-04-30T14:45:45Z</time>
      </trkpt>
      <trkpt lat="49.87233" lon="4.84572">
        <ele>201.05</ele>
        <time>2013-04-30T14:46:29Z</time>
      </trkpt>
      <trkpt lat="49.87323" lon="4.84551">
        <ele>199.13</ele>
        <time>2013-04-30T14:46:51Z</time>
      </trkpt>
      <trkpt lat="49.87377" lon="4.84538">
        <ele>194.32</ele>
        <time>2013-04-30T14:47:02Z</time>
      </trkpt>
      <trkpt lat="49.87436" lon="4.8455">
        <ele>189.52</ele>
        <time>2013-04-30T14:47:10Z</time>
      </trkpt>
      <trkpt lat="49.87511" lon="4.84596">
        <ele>179.9</ele>
        <time>2013-04-30T14:58:24Z</time>
      </trkpt>
      <trkpt lat="49.87522" lon="4.84503">
        <ele>187.11</ele>
        <time>2013-04-30T14:59:15Z</time>
      </trkpt>
      <trkpt lat="49.87564" lon="4.84396">
        <ele>194.32</ele>
        <time>2013-04-30T15:00:28Z</time>
      </trkpt>
      <trkpt lat="49.87584" lon="4.8433">
        <ele>201.05</ele>
        <time>2013-04-30T15:00:57Z</time>
      </trkpt>
      <trkpt lat="49.87621" lon="4.84249">
        <ele>205.86</ele>
        <time>2013-04-30T15:01:38Z</time>
      </trkpt>
      <trkpt lat="49.87641" lon="4.84213">
        <ele>207.3</ele>
        <time>2013-04-30T15:01:53Z</time>
      </trkpt>
      <trkpt lat="49.87666" lon="4.84177">
        <ele>209.22</ele>
        <time>2013-04-30T15:02:09Z</time>
      </trkpt>
      <trkpt lat="49.87715" lon="4.84107">
        <ele>212.11</ele>
        <time>2013-04-30T15:02:37Z</time>
      </trkpt>
      <trkpt lat="49.87795" lon="4.84057">
        <ele>221.72</ele>
        <time>2013-04-30T15:03:30Z</time>
      </trkpt>
      <trkpt lat="49.87844" lon="4.84011">
        <ele>226.53</ele>
        <time>2013-04-30T15:04:00Z</time>
      </trkpt>
      <trkpt lat="49.87932" lon="4.83902">
        <ele>239.99</ele>
        <time>2013-04-30T15:05:02Z</time>
      </trkpt>
      <trkpt lat="49.87959" lon="4.83891">
        <ele>240.95</ele>
        <time>2013-04-30T15:05:20Z</time>
      </trkpt>
      <trkpt lat="49.88003" lon="4.83882">
        <ele>240.47</ele>
        <time>2013-04-30T15:05:32Z</time>
      </trkpt>
      <trkpt lat="49.88048" lon="4.83894">
        <ele>242.87</ele>
        <time>2013-04-30T15:05:46Z</time>
      </trkpt>
      <trkpt lat="49.88126" lon="4.83899">
        <ele>250.56</ele>
        <time>2013-04-30T15:06:19Z</time>
      </trkpt>
      <trkpt lat="49.88177" lon="4.83913">
        <ele>257.29</ele>
        <time>2013-04-30T15:06:58Z</time>
      </trkpt>
      <trkpt lat="49.88179" lon="4.83913">
        <ele>257.29</ele>
        <time>2013-04-30T15:07:29Z</time>
      </trkpt>
      <trkpt lat="49.88223" lon="4.83873">
        <ele>250.56</ele>
        <time>2013-04-30T15:08:35Z</time>
      </trkpt>
      <trkpt lat="49.88266" lon="4.83866">
        <ele>244.31</ele>
        <time>2013-04-30T15:09:12Z</time>
      </trkpt>
      <trkpt lat="49.88339" lon="4.83858">
        <ele>238.06</ele>
        <time>2013-04-30T15:09:56Z</time>
      </trkpt>
      <trkpt lat="49.88438" lon="4.83851">
        <ele>231.81</ele>
        <time>2013-04-30T15:10:09Z</time>
      </trkpt>
      <trkpt lat="49.88474" lon="4.83837">
        <ele>221.72</ele>
        <time>2013-04-30T15:10:17Z</time>
      </trkpt>
      <trkpt lat="49.88475" lon="4.83837">
        <ele>221.24</ele>
        <time>2013-04-30T15:10:18Z</time>
      </trkpt>
      <trkpt lat="49.88476" lon="4.83836">
        <ele>221.24</ele>
        <time>2013-04-30T15:10:26Z</time>
      </trkpt>
      <trkpt lat="49.88475" lon="4.83809">
        <ele>219.8</ele>
        <time>2013-04-30T15:10:33Z</time>
      </trkpt>
      <trkpt lat="49.88475" lon="4.83779">
        <ele>217.88</ele>
        <time>2013-04-30T15:10:37Z</time>
      </trkpt>
      <trkpt lat="49.88476" lon="4.83749">
        <ele>213.07</ele>
        <time>2013-04-30T15:10:52Z</time>
      </trkpt>
      <trkpt lat="49.88459" lon="4.83698">
        <ele>207.3</ele>
        <time>2013-04-30T15:11:13Z</time>
      </trkpt>
      <trkpt lat="49.88449" lon="4.8365">
        <ele>200.57</ele>
        <time>2013-04-30T15:11:21Z</time>
      </trkpt>
      <trkpt lat="49.88475" lon="4.83607">
        <ele>193.36</ele>
        <time>2013-04-30T15:11:36Z</time>
      </trkpt>
      <trkpt lat="49.88499" lon="4.83608">
        <ele>192.88</ele>
        <time>2013-04-30T15:11:46Z</time>
      </trkpt>
      <trkpt lat="49.88516" lon="4.83535">
        <ele>187.11</ele>
        <time>2013-04-30T15:12:01Z</time>
      </trkpt>
      <trkpt lat="49.88535" lon="4.83515">
        <ele>185.67</ele>
        <time>2013-04-30T15:12:08Z</time>
      </trkpt>
      <trkpt lat="49.88558" lon="4.83419">
        <ele>178.46</ele>
        <time>2013-04-30T15:13:34Z</time>
      </trkpt>
      <trkpt lat="49.88574" lon="4.83383">
        <ele>174.14</ele>
        <time>2013-04-30T15:14:01Z</time>
      </trkpt>
      <trkpt lat="49.88605" lon="4.83415">
        <ele>174.62</ele>
        <time>2013-04-30T15:14:15Z</time>
      </trkpt>
      <trkpt lat="49.88641" lon="4.83467">
        <ele>174.14</ele>
        <time>2013-04-30T15:14:30Z</time>
      </trkpt>
      <trkpt lat="49.88683" lon="4.83624">
        <ele>174.14</ele>
        <time>2013-04-30T15:15:00Z</time>
      </trkpt>
      <trkpt lat="49.8868" lon="4.83771">
        <ele>175.58</ele>
        <time>2013-04-30T15:15:25Z</time>
      </trkpt>
      <trkpt lat="49.88714" lon="4.83818">
        <ele>177.5</ele>
        <time>2013-04-30T15:15:39Z</time>
      </trkpt>
      <trkpt lat="49.88776" lon="4.83888">
        <ele>175.1</ele>
        <time>2013-04-30T15:15:55Z</time>
      </trkpt>
      <trkpt lat="49.88773" lon="4.83933">
        <ele>172.21</ele>
        <time>2013-04-30T15:16:01Z</time>
      </trkpt>
      <trkpt lat="49.88788" lon="4.83973">
        <ele>173.66</ele>
        <time>2013-04-30T15:16:09Z</time>
      </trkpt>
      <trkpt lat="49.88771" lon="4.84099">
        <ele>175.1</ele>
        <time>2013-04-30T15:16:38Z</time>
      </trkpt>
      <trkpt lat="49.88741" lon="4.84155">
        <ele>175.1</ele>
        <time>2013-04-30T15:16:51Z</time>
      </trkpt>
      <trkpt lat="49.88723" lon="4.84195">
        <ele>174.62</ele>
        <time>2013-04-30T15:17:02Z</time>
      </trkpt>
      <trkpt lat="49.88813" lon="4.8427">
        <ele>175.1</ele>
        <time>2013-04-30T15:17:31Z</time>
      </trkpt>
      <trkpt lat="49.88851" lon="4.84271">
        <ele>174.62</ele>
        <time>2013-04-30T15:17:42Z</time>
      </trkpt>
      <trkpt lat="49.88925" lon="4.84284">
        <ele>176.06</ele>
        <time>2013-04-30T15:18:04Z</time>
      </trkpt>
      <trkpt lat="49.88952" lon="4.84251">
        <ele>177.5</ele>
        <time>2013-04-30T15:18:19Z</time>
      </trkpt>
      <trkpt lat="49.88993" lon="4.84254">
        <ele>180.87</ele>
        <time>2013-04-30T15:18:44Z</time>
      </trkpt>
      <trkpt lat="49.88996" lon="4.84254">
        <ele>180.87</ele>
        <time>2013-04-30T15:18:45Z</time>
      </trkpt>
      <trkpt lat="49.89028" lon="4.84301">
        <ele>185.19</ele>
        <time>2013-04-30T15:19:13Z</time>
      </trkpt>
      <trkpt lat="49.89128" lon="4.84346">
        <ele>192.4</ele>
        <time>2013-04-30T15:20:03Z</time>
      </trkpt>
      <trkpt lat="49.892" lon="4.84386">
        <ele>198.65</ele>
        <time>2013-04-30T15:20:41Z</time>
      </trkpt>
      <trkpt lat="49.89272" lon="4.84464">
        <ele>204.42</ele>
        <time>2013-04-30T15:21:23Z</time>
      </trkpt>
      <trkpt lat="49.89341" lon="4.84548">
        <ele>205.38</ele>
        <time>2013-04-30T15:21:53Z</time>
      </trkpt>
      <trkpt lat="49.89344" lon="4.84551">
        <ele>204.9</ele>
        <time>2013-04-30T15:21:55Z</time>
      </trkpt>
      <trkpt lat="49.89408" lon="4.84624">
        <ele>205.38</ele>
        <time>2013-04-30T15:22:27Z</time>
      </trkpt>
      <trkpt lat="49.89472" lon="4.84665">
        <ele>205.86</ele>
        <time>2013-04-30T15:22:49Z</time>
      </trkpt>
      <trkpt lat="49.89523" lon="4.84717">
        <ele>202.01</ele>
        <time>2013-04-30T15:23:13Z</time>
      </trkpt>
      <trkpt lat="49.89523" lon="4.84718">
        <ele>202.01</ele>
        <time>2013-04-30T15:23:14Z</time>
      </trkpt>
      <trkpt lat="49.89524" lon="4.8472">
        <ele>208.26</ele>
        <time>2013-04-30T15:23:15Z</time>
      </trkpt>
      <trkpt lat="49.89582" lon="4.84735">
        <ele>206.34</ele>
        <time>2013-04-30T15:23:36Z</time>
      </trkpt>
      <trkpt lat="49.8961" lon="4.84729">
        <ele>206.34</ele>
        <time>2013-04-30T15:23:41Z</time>
      </trkpt>
      <trkpt lat="49.89681" lon="4.84715">
        <ele>205.86</ele>
        <time>2013-04-30T15:23:57Z</time>
      </trkpt>
      <trkpt lat="49.89782" lon="4.84682">
        <ele>206.82</ele>
        <time>2013-04-30T15:24:34Z</time>
      </trkpt>
      <trkpt lat="49.89871" lon="4.84645">
        <ele>208.26</ele>
        <time>2013-04-30T15:24:58Z</time>
      </trkpt>
      <trkpt lat="49.89936" lon="4.84601">
        <ele>208.26</ele>
        <time>2013-04-30T15:25:16Z</time>
      </trkpt>
      <trkpt lat="49.90052" lon="4.84458">
        <ele>209.22</ele>
        <time>2013-04-30T15:25:58Z</time>
      </trkpt>
      <trkpt lat="49.90128" lon="4.84254">
        <ele>211.63</ele>
        <time>2013-04-30T15:26:37Z</time>
      </trkpt>
      <trkpt lat="49.90226" lon="4.84061">
        <ele>212.11</ele>
        <time>2013-04-30T15:27:24Z</time>
      </trkpt>
      <trkpt lat="49.90308" lon="4.83986">
        <ele>216.91</ele>
        <time>2013-04-30T15:27:56Z</time>
      </trkpt>
      <trkpt lat="49.90432" lon="4.83871">
        <ele>224.61</ele>
        <time>2013-04-30T15:28:42Z</time>
      </trkpt>
      <trkpt lat="49.90449" lon="4.83768">
        <ele>228.45</ele>
        <time>2013-04-30T15:29:09Z</time>
      </trkpt>
      <trkpt lat="49.9045" lon="4.83763">
        <ele>228.45</ele>
        <time>2013-04-30T15:29:11Z</time>
      </trkpt>
      <trkpt lat="49.90464" lon="4.83644">
        <ele>234.22</ele>
        <time>2013-04-30T15:29:40Z</time>
      </trkpt>
      <trkpt lat="49.90433" lon="4.83552">
        <ele>238.54</ele>
        <time>2013-04-30T15:32:50Z</time>
      </trkpt>
      <trkpt lat="49.90391" lon="4.83451">
        <ele>245.27</ele>
        <time>2013-04-30T15:33:28Z</time>
      </trkpt>
      <trkpt lat="49.90369" lon="4.83388">
        <ele>248.64</ele>
        <time>2013-04-30T15:33:47Z</time>
      </trkpt>
      <trkpt lat="49.90307" lon="4.83207">
        <ele>264.02</ele>
        <time>2013-04-30T15:34:51Z</time>
      </trkpt>
      <trkpt lat="49.90322" lon="4.83161">
        <ele>268.83</ele>
        <time>2013-04-30T15:35:08Z</time>
      </trkpt>
      <trkpt lat="49.9033" lon="4.83091">
        <ele>272.19</ele>
        <time>2013-04-30T15:35:22Z</time>
      </trkpt>
      <trkpt lat="49.90295" lon="4.83017">
        <ele>277.48</ele>
        <time>2013-04-30T15:35:47Z</time>
      </trkpt>
      <trkpt lat="49.90244" lon="4.82873">
        <ele>287.57</ele>
        <time>2013-04-30T15:36:28Z</time>
      </trkpt>
      <trkpt lat="49.90242" lon="4.82871">
        <ele>287.57</ele>
        <time>2013-04-30T15:36:29Z</time>
      </trkpt>
      <trkpt lat="49.90221" lon="4.82821">
        <ele>291.9</ele>
        <time>2013-04-30T15:36:47Z</time>
      </trkpt>
      <trkpt lat="49.9022" lon="4.82817">
        <ele>292.86</ele>
        <time>2013-04-30T15:36:49Z</time>
      </trkpt>
      <trkpt lat="49.9023" lon="4.82771">
        <ele>296.7</ele>
        <time>2013-04-30T15:37:06Z</time>
      </trkpt>
      <trkpt lat="49.90239" lon="4.82682">
        <ele>300.55</ele>
        <time>2013-04-30T15:37:23Z</time>
      </trkpt>
      <trkpt lat="49.90235" lon="4.82629">
        <ele>304.39</ele>
        <time>2013-04-30T15:37:39Z</time>
      </trkpt>
      <trkpt lat="49.90259" lon="4.82638">
        <ele>311.6</ele>
        <time>2013-04-30T15:38:08Z</time>
      </trkpt>
      <trkpt lat="49.90285" lon="4.82662">
        <ele>314.49</ele>
        <time>2013-04-30T15:38:22Z</time>
      </trkpt>
      <trkpt lat="49.90348" lon="4.8269">
        <ele>316.89</ele>
        <time>2013-04-30T15:38:32Z</time>
      </trkpt>
      <trkpt lat="49.90377" lon="4.82718">
        <ele>319.78</ele>
        <time>2013-04-30T15:38:48Z</time>
      </trkpt>
      <trkpt lat="49.90374" lon="4.82688">
        <ele>322.18</ele>
        <time>2013-04-30T15:38:59Z</time>
      </trkpt>
      <trkpt lat="49.90352" lon="4.82602">
        <ele>328.43</ele>
        <time>2013-04-30T15:39:26Z</time>
      </trkpt>
      <trkpt lat="49.9031" lon="4.82518">
        <ele>335.64</ele>
        <time>2013-04-30T15:39:57Z</time>
      </trkpt>
      <trkpt lat="49.90223" lon="4.82414">
        <ele>344.29</ele>
        <time>2013-04-30T15:40:38Z</time>
      </trkpt>
      <trkpt lat="49.90184" lon="4.82314">
        <ele>353.42</ele>
        <time>2013-04-30T15:41:13Z</time>
      </trkpt>
      <trkpt lat="49.9014" lon="4.82291">
        <ele>356.79</ele>
        <time>2013-04-30T15:41:28Z</time>
      </trkpt>
      <trkpt lat="49.90086" lon="4.82255">
        <ele>359.67</ele>
        <time>2013-04-30T15:49:33Z</time>
      </trkpt>
      <trkpt lat="49.90046" lon="4.82362">
        <ele>360.15</ele>
        <time>2013-04-30T15:49:58Z</time>
      </trkpt>
      <trkpt lat="49.9003" lon="4.82437">
        <ele>361.59</ele>
        <time>2013-04-30T15:50:10Z</time>
      </trkpt>
      <trkpt lat="49.89999" lon="4.82493">
        <ele>361.59</ele>
        <time>2013-04-30T15:50:22Z</time>
      </trkpt>
      <trkpt lat="49.89894" lon="4.82759">
        <ele>364.48</ele>
        <time>2013-04-30T15:51:21Z</time>
      </trkpt>
      <trkpt lat="49.89858" lon="4.82873">
        <ele>368.8</ele>
        <time>2013-04-30T15:51:49Z</time>
      </trkpt>
      <trkpt lat="49.8981" lon="4.82918">
        <ele>370.24</ele>
        <time>2013-04-30T15:52:12Z</time>
      </trkpt>
      <trkpt lat="49.89809" lon="4.82918">
        <ele>369.28</ele>
        <time>2013-04-30T15:52:13Z</time>
      </trkpt>
      <trkpt lat="49.89743" lon="4.82923">
        <ele>369.28</ele>
        <time>2013-04-30T15:52:36Z</time>
      </trkpt>
      <trkpt lat="49.89602" lon="4.82979">
        <ele>361.11</ele>
        <time>2013-04-30T15:52:57Z</time>
      </trkpt>
      <trkpt lat="49.89512" lon="4.8305">
        <ele>353.42</ele>
        <time>2013-04-30T15:53:08Z</time>
      </trkpt>
      <trkpt lat="49.89361" lon="4.83078">
        <ele>347.65</ele>
        <time>2013-04-30T15:53:27Z</time>
      </trkpt>
      <trkpt lat="49.89295" lon="4.83114">
        <ele>339.48</ele>
        <time>2013-04-30T15:53:36Z</time>
      </trkpt>
      <trkpt lat="49.89241" lon="4.83208">
        <ele>331.79</ele>
        <time>2013-04-30T15:53:45Z</time>
      </trkpt>
      <trkpt lat="49.8921" lon="4.83275">
        <ele>328.43</ele>
        <time>2013-04-30T15:53:51Z</time>
      </trkpt>
      <trkpt lat="49.89161" lon="4.83262">
        <ele>318.81</ele>
        <time>2013-04-30T15:53:57Z</time>
      </trkpt>
      <trkpt lat="49.89016" lon="4.83144">
        <ele>293.34</ele>
        <time>2013-04-30T15:54:15Z</time>
      </trkpt>
      <trkpt lat="49.88954" lon="4.83056">
        <ele>278.44</ele>
        <time>2013-04-30T15:54:25Z</time>
      </trkpt>
      <trkpt lat="49.88878" lon="4.82994">
        <ele>266.42</ele>
        <time>2013-04-30T15:54:33Z</time>
      </trkpt>
      <trkpt lat="49.88836" lon="4.82965">
        <ele>260.65</ele>
        <time>2013-04-30T15:54:38Z</time>
      </trkpt>
      <trkpt lat="49.88762" lon="4.8292">
        <ele>249.12</ele>
        <time>2013-04-30T15:54:51Z</time>
      </trkpt>
      <trkpt lat="49.88695" lon="4.8289">
        <ele>239.99</ele>
        <time>2013-04-30T15:54:59Z</time>
      </trkpt>
      <trkpt lat="49.88664" lon="4.82885">
        <ele>236.14</ele>
        <time>2013-04-30T15:55:08Z</time>
      </trkpt>
      <trkpt lat="49.88588" lon="4.82864">
        <ele>230.37</ele>
        <time>2013-04-30T15:55:19Z</time>
      </trkpt>
      <trkpt lat="49.88546" lon="4.82859">
        <ele>230.37</ele>
        <time>2013-04-30T15:56:25Z</time>
      </trkpt>
      <trkpt lat="49.88473" lon="4.82826">
        <ele>229.89</ele>
        <time>2013-04-30T15:56:55Z</time>
      </trkpt>
      <trkpt lat="49.8845" lon="4.82842">
        <ele>230.85</ele>
        <time>2013-04-30T15:57:01Z</time>
      </trkpt>
      <trkpt lat="49.88368" lon="4.8286">
        <ele>238.54</ele>
        <time>2013-04-30T15:57:31Z</time>
      </trkpt>
      <trkpt lat="49.88344" lon="4.82842">
        <ele>240.95</ele>
        <time>2013-04-30T15:57:43Z</time>
      </trkpt>
      <trkpt lat="49.88289" lon="4.82841">
        <ele>245.27</ele>
        <time>2013-04-30T15:58:51Z</time>
      </trkpt>
      <trkpt lat="49.8829" lon="4.82803">
        <ele>243.35</ele>
        <time>2013-04-30T15:58:58Z</time>
      </trkpt>
      <trkpt lat="49.88314" lon="4.82767">
        <ele>237.58</ele>
        <time>2013-04-30T15:59:05Z</time>
      </trkpt>
      <trkpt lat="49.88327" lon="4.82694">
        <ele>231.81</ele>
        <time>2013-04-30T15:59:13Z</time>
      </trkpt>
      <trkpt lat="49.88353" lon="4.82655">
        <ele>227.01</ele>
        <time>2013-04-30T15:59:17Z</time>
      </trkpt>
      <trkpt lat="49.88377" lon="4.82641">
        <ele>222.68</ele>
        <time>2013-04-30T15:59:20Z</time>
      </trkpt>
      <trkpt lat="49.88414" lon="4.82614">
        <ele>214.51</ele>
        <time>2013-04-30T15:59:24Z</time>
      </trkpt>
      <trkpt lat="49.88457" lon="4.8255">
        <ele>203.46</ele>
        <time>2013-04-30T15:59:31Z</time>
      </trkpt>
      <trkpt lat="49.88516" lon="4.8245">
        <ele>193.36</ele>
        <time>2013-04-30T15:59:40Z</time>
      </trkpt>
      <trkpt lat="49.88534" lon="4.82409">
        <ele>189.04</ele>
        <time>2013-04-30T15:59:43Z</time>
      </trkpt>
      <trkpt lat="49.88543" lon="4.82331">
        <ele>178.94</ele>
        <time>2013-04-30T16:00:15Z</time>
      </trkpt>
      <trkpt lat="49.88498" lon="4.82311">
        <ele>176.06</ele>
        <time>2013-04-30T16:00:29Z</time>
      </trkpt>
      <trkpt lat="49.88493" lon="4.82302">
        <ele>175.1</ele>
        <time>2013-04-30T16:00:31Z</time>
      </trkpt>
      <trkpt lat="49.88613" lon="4.82265">
        <ele>175.1</ele>
        <time>2013-04-30T16:01:02Z</time>
      </trkpt>
      <trkpt lat="49.88707" lon="4.82251">
        <ele>174.62</ele>
        <time>2013-04-30T16:01:25Z</time>
      </trkpt>
      <trkpt lat="49.8885" lon="4.82223">
        <ele>175.1</ele>
        <time>2013-04-30T16:01:59Z</time>
      </trkpt>
      <trkpt lat="49.88923" lon="4.82159">
        <ele>174.62</ele>
        <time>2013-04-30T16:02:17Z</time>
      </trkpt>
      <trkpt lat="49.89066" lon="4.82038">
        <ele>173.66</ele>
        <time>2013-04-30T16:02:55Z</time>
      </trkpt>
      <trkpt lat="49.8911" lon="4.82017">
        <ele>174.14</ele>
        <time>2013-04-30T16:03:06Z</time>
      </trkpt>
      <trkpt lat="49.89181" lon="4.82012">
        <ele>174.14</ele>
        <time>2013-04-30T16:03:22Z</time>
      </trkpt>
      <trkpt lat="49.8929" lon="4.81994">
        <ele>173.66</ele>
        <time>2013-04-30T16:03:45Z</time>
      </trkpt>
      <trkpt lat="49.89398" lon="4.81906">
        <ele>173.66</ele>
        <time>2013-04-30T16:04:11Z</time>
      </trkpt>
      <trkpt lat="49.89458" lon="4.81848">
        <ele>173.66</ele>
        <time>2013-04-30T16:04:26Z</time>
      </trkpt>
      <trkpt lat="49.89525" lon="4.81756">
        <ele>173.66</ele>
        <time>2013-04-30T16:04:46Z</time>
      </trkpt>
      <trkpt lat="49.89554" lon="4.81644">
        <ele>173.66</ele>
        <time>2013-04-30T16:05:02Z</time>
      </trkpt>
      <trkpt lat="49.89595" lon="4.81468">
        <ele>174.14</ele>
        <time>2013-04-30T16:05:29Z</time>
      </trkpt>
      <trkpt lat="49.89623" lon="4.81395">
        <ele>174.62</ele>
        <time>2013-04-30T16:05:42Z</time>
      </trkpt>
      <trkpt lat="49.89645" lon="4.81287">
        <ele>177.98</ele>
        <time>2013-04-30T16:05:59Z</time>
      </trkpt>
      <trkpt lat="49.89646" lon="4.81088">
        <ele>174.14</ele>
        <time>2013-04-30T16:06:23Z</time>
      </trkpt>
      <trkpt lat="49.89626" lon="4.81018">
        <ele>174.62</ele>
        <time>2013-04-30T16:06:34Z</time>
      </trkpt>
      <trkpt lat="49.89588" lon="4.80833">
        <ele>175.58</ele>
        <time>2013-04-30T16:07:03Z</time>
      </trkpt>
      <trkpt lat="49.89474" lon="4.80667">
        <ele>177.5</ele>
        <time>2013-04-30T16:07:41Z</time>
      </trkpt>
      <trkpt lat="49.89377" lon="4.80585">
        <ele>177.5</ele>
        <time>2013-04-30T16:08:08Z</time>
      </trkpt>
      <trkpt lat="49.89167" lon="4.80458">
        <ele>174.62</ele>
        <time>2013-04-30T16:08:53Z</time>
      </trkpt>
      <trkpt lat="49.89073" lon="4.80421">
        <ele>174.62</ele>
        <time>2013-04-30T16:09:12Z</time>
      </trkpt>
      <trkpt lat="49.88957" lon="4.80389">
        <ele>174.62</ele>
        <time>2013-04-30T16:09:37Z</time>
      </trkpt>
      <trkpt lat="49.88827" lon="4.80403">
        <ele>174.14</ele>
        <time>2013-04-30T16:10:59Z</time>
      </trkpt>
      <trkpt lat="49.88754" lon="4.80405">
        <ele>174.14</ele>
        <time>2013-04-30T16:11:19Z</time>
      </trkpt>
      <trkpt lat="49.88653" lon="4.80402">
        <ele>173.17</ele>
        <time>2013-04-30T16:11:41Z</time>
      </trkpt>
      <trkpt lat="49.88592" lon="4.80409">
        <ele>173.66</ele>
        <time>2013-04-30T16:11:53Z</time>
      </trkpt>
      <trkpt lat="49.88552" lon="4.80419">
        <ele>172.69</ele>
        <time>2013-04-30T16:12:01Z</time>
      </trkpt>
      <trkpt lat="49.88464" lon="4.80438">
        <ele>171.25</ele>
        <time>2013-04-30T16:12:20Z</time>
      </trkpt>
      <trkpt lat="49.88392" lon="4.80433">
        <ele>171.25</ele>
        <time>2013-04-30T16:12:35Z</time>
      </trkpt>
      <trkpt lat="49.88353" lon="4.80429">
        <ele>170.29</ele>
        <time>2013-04-30T16:12:43Z</time>
      </trkpt>
      <trkpt lat="49.8832" lon="4.80426">
        <ele>169.81</ele>
        <time>2013-04-30T16:12:49Z</time>
      </trkpt>
      <trkpt lat="49.88264" lon="4.80438">
        <ele>168.85</ele>
        <time>2013-04-30T16:12:59Z</time>
      </trkpt>
      <trkpt lat="49.88182" lon="4.80461">
        <ele>168.85</ele>
        <time>2013-04-30T16:13:14Z</time>
      </trkpt>
      <trkpt lat="49.88132" lon="4.80483">
        <ele>168.85</ele>
        <time>2013-04-30T16:13:24Z</time>
      </trkpt>
      <trkpt lat="49.87988" lon="4.80586">
        <ele>167.89</ele>
        <time>2013-04-30T16:13:53Z</time>
      </trkpt>
      <trkpt lat="49.87839" lon="4.80607">
        <ele>171.25</ele>
        <time>2013-04-30T16:14:22Z</time>
      </trkpt>
      <trkpt lat="49.87698" lon="4.80541">
        <ele>168.85</ele>
        <time>2013-04-30T16:14:52Z</time>
      </trkpt>
      <trkpt lat="49.87653" lon="4.80549">
        <ele>169.81</ele>
        <time>2013-04-30T16:15:01Z</time>
      </trkpt>
      <trkpt lat="49.87562" lon="4.80516">
        <ele>170.29</ele>
        <time>2013-04-30T16:15:21Z</time>
      </trkpt>
      <trkpt lat="49.87478" lon="4.80503">
        <ele>171.73</ele>
        <time>2013-04-30T16:15:38Z</time>
      </trkpt>
      <trkpt lat="49.8741" lon="4.80495">
        <ele>170.77</ele>
        <time>2013-04-30T16:15:52Z</time>
      </trkpt>
      <trkpt lat="49.87369" lon="4.80506">
        <ele>169.33</ele>
        <time>2013-04-30T16:16:00Z</time>
      </trkpt>
      <trkpt lat="49.8732" lon="4.80505">
        <ele>168.85</ele>
        <time>2013-04-30T16:16:09Z</time>
      </trkpt>
      <trkpt lat="49.87208" lon="4.80485">
        <ele>168.37</ele>
        <time>2013-04-30T16:16:43Z</time>
      </trkpt>
      <trkpt lat="49.87178" lon="4.80471">
        <ele>168.85</ele>
        <time>2013-04-30T16:16:50Z</time>
      </trkpt>
      <trkpt lat="49.87032" lon="4.80405">
        <ele>168.37</ele>
        <time>2013-04-30T16:17:24Z</time>
      </trkpt>
      <trkpt lat="49.86967" lon="4.80377">
        <ele>168.85</ele>
        <time>2013-04-30T16:17:38Z</time>
      </trkpt>
      <trkpt lat="49.86853" lon="4.80303">
        <ele>167.89</ele>
        <time>2013-04-30T16:18:03Z</time>
      </trkpt>
      <trkpt lat="49.8676" lon="4.80247">
        <ele>168.37</ele>
        <time>2013-04-30T16:18:21Z</time>
      </trkpt>
      <trkpt lat="49.86658" lon="4.80249">
        <ele>167.41</ele>
        <time>2013-04-30T16:18:42Z</time>
      </trkpt>
      <trkpt lat="49.86602" lon="4.8024">
        <ele>167.89</ele>
        <time>2013-04-30T16:18:53Z</time>
      </trkpt>
      <trkpt lat="49.86505" lon="4.80204">
        <ele>167.41</ele>
        <time>2013-04-30T16:19:12Z</time>
      </trkpt>
      <trkpt lat="49.86425" lon="4.802">
        <ele>166.93</ele>
        <time>2013-04-30T16:19:26Z</time>
      </trkpt>
      <trkpt lat="49.86349" lon="4.80188">
        <ele>167.41</ele>
        <time>2013-04-30T16:19:40Z</time>
      </trkpt>
      <trkpt lat="49.86272" lon="4.80168">
        <ele>166.93</ele>
        <time>2013-04-30T16:19:54Z</time>
      </trkpt>
      <trkpt lat="49.86239" lon="4.80175">
        <ele>166.45</ele>
        <time>2013-04-30T16:20:00Z</time>
      </trkpt>
      <trkpt lat="49.86142" lon="4.80203">
        <ele>166.93</ele>
        <time>2013-04-30T16:20:19Z</time>
      </trkpt>
      <trkpt lat="49.86118" lon="4.80216">
        <ele>166.93</ele>
        <time>2013-04-30T16:20:24Z</time>
      </trkpt>
      <trkpt lat="49.86067" lon="4.80259">
        <ele>166.93</ele>
        <time>2013-04-30T16:20:35Z</time>
      </trkpt>
      <trkpt lat="49.86017" lon="4.80304">
        <ele>166.93</ele>
        <time>2013-04-30T16:20:46Z</time>
      </trkpt>
      <trkpt lat="49.85987" lon="4.80338">
        <ele>166.93</ele>
        <time>2013-04-30T16:20:53Z</time>
      </trkpt>
      <trkpt lat="49.85928" lon="4.80427">
        <ele>166.93</ele>
        <time>2013-04-30T16:21:09Z</time>
      </trkpt>
      <trkpt lat="49.85912" lon="4.80446">
        <ele>166.93</ele>
        <time>2013-04-30T16:21:13Z</time>
      </trkpt>
      <trkpt lat="49.85889" lon="4.8046">
        <ele>166.93</ele>
        <time>2013-04-30T16:21:19Z</time>
      </trkpt>
      <trkpt lat="49.85844" lon="4.80469">
        <ele>166.93</ele>
        <time>2013-04-30T16:21:28Z</time>
      </trkpt>
      <trkpt lat="49.85813" lon="4.80493">
        <ele>165</ele>
        <time>2013-04-30T16:21:34Z</time>
      </trkpt>
      <trkpt lat="49.85744" lon="4.80509">
        <ele>164.04</ele>
        <time>2013-04-30T16:21:44Z</time>
      </trkpt>
      <trkpt lat="49.85737" lon="4.80478">
        <ele>163.56</ele>
        <time>2013-04-30T16:21:49Z</time>
      </trkpt>
      <trkpt lat="49.85715" lon="4.80506">
        <ele>164.04</ele>
        <time>2013-04-30T16:21:58Z</time>
      </trkpt>
      <trkpt lat="49.85693" lon="4.80505">
        <ele>163.56</ele>
        <time>2013-04-30T16:22:02Z</time>
      </trkpt>
      <trkpt lat="49.85641" lon="4.80477">
        <ele>163.56</ele>
        <time>2013-04-30T16:22:12Z</time>
      </trkpt>
      <trkpt lat="49.85635" lon="4.8045">
        <ele>163.56</ele>
        <time>2013-04-30T16:22:16Z</time>
      </trkpt>
      <trkpt lat="49.85646" lon="4.8037">
        <ele>165</ele>
        <time>2013-04-30T16:22:32Z</time>
      </trkpt>
      <trkpt lat="49.85661" lon="4.80304">
        <ele>165.96</ele>
        <time>2013-04-30T16:22:47Z</time>
      </trkpt>
      <trkpt lat="49.85626" lon="4.80121">
        <ele>166.45</ele>
        <time>2013-04-30T16:23:17Z</time>
      </trkpt>
      <trkpt lat="49.8562" lon="4.80099">
        <ele>165.96</ele>
        <time>2013-04-30T16:23:55Z</time>
      </trkpt>
      <trkpt lat="49.85623" lon="4.7999">
        <ele>166.45</ele>
        <time>2013-04-30T16:24:17Z</time>
      </trkpt>
      <trkpt lat="49.85627" lon="4.79755">
        <ele>165.96</ele>
        <time>2013-04-30T16:24:52Z</time>
      </trkpt>
      <trkpt lat="49.85634" lon="4.79558">
        <ele>165.48</ele>
        <time>2013-04-30T16:25:19Z</time>
      </trkpt>
      <trkpt lat="49.8565" lon="4.79336">
        <ele>165.48</ele>
        <time>2013-04-30T16:25:50Z</time>
      </trkpt>
      <trkpt lat="49.85663" lon="4.79295">
        <ele>165.96</ele>
        <time>2013-04-30T16:25:56Z</time>
      </trkpt>
      <trkpt lat="49.85692" lon="4.79233">
        <ele>165.48</ele>
        <time>2013-04-30T16:26:07Z</time>
      </trkpt>
      <trkpt lat="49.85693" lon="4.79205">
        <ele>165.48</ele>
        <time>2013-04-30T16:26:12Z</time>
      </trkpt>
      <trkpt lat="49.85695" lon="4.792">
        <ele>165</ele>
        <time>2013-04-30T16:26:13Z</time>
      </trkpt>
      <trkpt lat="49.85724" lon="4.7915">
        <ele>165.48</ele>
        <time>2013-04-30T16:26:22Z</time>
      </trkpt>
      <trkpt lat="49.85783" lon="4.79098">
        <ele>166.45</ele>
        <time>2013-04-30T16:26:35Z</time>
      </trkpt>
      <trkpt lat="49.85814" lon="4.79078">
        <ele>166.45</ele>
        <time>2013-04-30T16:26:41Z</time>
      </trkpt>
      <trkpt lat="49.85857" lon="4.79045">
        <ele>166.93</ele>
        <time>2013-04-30T16:26:51Z</time>
      </trkpt>
      <trkpt lat="49.85894" lon="4.7901">
        <ele>167.89</ele>
        <time>2013-04-30T16:27:03Z</time>
      </trkpt>
      <trkpt lat="49.85934" lon="4.78962">
        <ele>165</ele>
        <time>2013-04-30T16:27:12Z</time>
      </trkpt>
      <trkpt lat="49.86" lon="4.78903">
        <ele>161.16</ele>
        <time>2013-04-30T16:27:23Z</time>
      </trkpt>
      <trkpt lat="49.8607" lon="4.78856">
        <ele>161.16</ele>
        <time>2013-04-30T16:27:36Z</time>
      </trkpt>
      <trkpt lat="49.86167" lon="4.78783">
        <ele>161.16</ele>
        <time>2013-04-30T16:27:56Z</time>
      </trkpt>
      <trkpt lat="49.86259" lon="4.78771">
        <ele>164.52</ele>
        <time>2013-04-30T16:28:16Z</time>
      </trkpt>
      <trkpt lat="49.86307" lon="4.7876">
        <ele>165.96</ele>
        <time>2013-04-30T16:28:28Z</time>
      </trkpt>
      <trkpt lat="49.86443" lon="4.78783">
        <ele>170.29</ele>
        <time>2013-04-30T16:29:06Z</time>
      </trkpt>
      <trkpt lat="49.86503" lon="4.78788">
        <ele>165</ele>
        <time>2013-04-30T16:29:18Z</time>
      </trkpt>
      <trkpt lat="49.86529" lon="4.78781">
        <ele>163.08</ele>
        <time>2013-04-30T16:29:22Z</time>
      </trkpt>
      <trkpt lat="49.86571" lon="4.78743">
        <ele>160.68</ele>
        <time>2013-04-30T16:29:28Z</time>
      </trkpt>
      <trkpt lat="49.86688" lon="4.78713">
        <ele>159.72</ele>
        <time>2013-04-30T16:29:46Z</time>
      </trkpt>
      <trkpt lat="49.86728" lon="4.78692">
        <ele>159.72</ele>
        <time>2013-04-30T16:29:55Z</time>
      </trkpt>
      <trkpt lat="49.86812" lon="4.78633">
        <ele>159.72</ele>
        <time>2013-04-30T16:30:15Z</time>
      </trkpt>
      <trkpt lat="49.86883" lon="4.78586">
        <ele>159.24</ele>
        <time>2013-04-30T16:30:32Z</time>
      </trkpt>
      <trkpt lat="49.86952" lon="4.7859">
        <ele>160.68</ele>
        <time>2013-04-30T16:30:48Z</time>
      </trkpt>
      <trkpt lat="49.87018" lon="4.78614">
        <ele>160.68</ele>
        <time>2013-04-30T16:31:04Z</time>
      </trkpt>
      <trkpt lat="49.87069" lon="4.78634">
        <ele>160.68</ele>
        <time>2013-04-30T16:31:16Z</time>
      </trkpt>
      <trkpt lat="49.871" lon="4.78646">
        <ele>160.68</ele>
        <time>2013-04-30T16:31:23Z</time>
      </trkpt>
      <trkpt lat="49.87159" lon="4.78636">
        <ele>160.2</ele>
        <time>2013-04-30T16:31:37Z</time>
      </trkpt>
      <trkpt lat="49.87184" lon="4.78609">
        <ele>159.72</ele>
        <time>2013-04-30T16:31:44Z</time>
      </trkpt>
      <trkpt lat="49.87234" lon="4.78534">
        <ele>157.79</ele>
        <time>2013-04-30T16:31:59Z</time>
      </trkpt>
      <trkpt lat="49.87259" lon="4.78534">
        <ele>157.79</ele>
        <time>2013-04-30T16:32:05Z</time>
      </trkpt>
      <trkpt lat="49.87296" lon="4.78606">
        <ele>157.31</ele>
        <time>2013-04-30T16:32:19Z</time>
      </trkpt>
      <trkpt lat="49.87326" lon="4.78665">
        <ele>158.27</ele>
        <time>2013-04-30T16:32:31Z</time>
      </trkpt>
      <trkpt lat="49.87326" lon="4.78665">
        <ele>158.27</ele>
        <time>2013-04-30T16:32:31Z</time>
      </trkpt>
      <trkpt lat="49.87364" lon="4.78772">
        <ele>149.62</ele>
        <time>2013-05-01T07:04:06Z</time>
      </trkpt>
      <trkpt lat="49.87396" lon="4.78854">
        <ele>153.95</ele>
        <time>2013-05-01T07:04:31Z</time>
      </trkpt>
      <trkpt lat="49.87409" lon="4.78891">
        <ele>155.39</ele>
        <time>2013-05-01T07:05:34Z</time>
      </trkpt>
      <trkpt lat="49.87429" lon="4.78904">
        <ele>156.35</ele>
        <time>2013-05-01T07:05:46Z</time>
      </trkpt>
      <trkpt lat="49.87437" lon="4.78905">
        <ele>157.79</ele>
        <time>2013-05-01T07:05:51Z</time>
      </trkpt>
      <trkpt lat="49.87471" lon="4.78904">
        <ele>160.68</ele>
        <time>2013-05-01T07:06:08Z</time>
      </trkpt>
      <trkpt lat="49.87492" lon="4.78895">
        <ele>161.16</ele>
        <time>2013-05-01T07:06:48Z</time>
      </trkpt>
      <trkpt lat="49.87558" lon="4.78841">
        <ele>159.24</ele>
        <time>2013-05-01T07:07:20Z</time>
      </trkpt>
      <trkpt lat="49.8762" lon="4.78742">
        <ele>157.79</ele>
        <time>2013-05-01T07:07:41Z</time>
      </trkpt>
      <trkpt lat="49.87657" lon="4.78646">
        <ele>156.35</ele>
        <time>2013-05-01T07:08:03Z</time>
      </trkpt>
      <trkpt lat="49.87687" lon="4.78381">
        <ele>152.99</ele>
        <time>2013-05-01T07:08:49Z</time>
      </trkpt>
      <trkpt lat="49.87711" lon="4.78338">
        <ele>152.51</ele>
        <time>2013-05-01T07:08:59Z</time>
      </trkpt>
      <trkpt lat="49.87777" lon="4.7826">
        <ele>150.58</ele>
        <time>2013-05-01T07:09:20Z</time>
      </trkpt>
      <trkpt lat="49.87868" lon="4.78204">
        <ele>149.62</ele>
        <time>2013-05-01T07:09:43Z</time>
      </trkpt>
      <trkpt lat="49.87935" lon="4.78131">
        <ele>149.14</ele>
        <time>2013-05-01T07:10:05Z</time>
      </trkpt>
      <trkpt lat="49.87997" lon="4.78055">
        <ele>149.14</ele>
        <time>2013-05-01T07:10:26Z</time>
      </trkpt>
      <trkpt lat="49.88028" lon="4.78006">
        <ele>149.62</ele>
        <time>2013-05-01T07:10:37Z</time>
      </trkpt>
      <trkpt lat="49.88064" lon="4.77934">
        <ele>149.14</ele>
        <time>2013-05-01T07:10:51Z</time>
      </trkpt>
      <trkpt lat="49.8813" lon="4.77806">
        <ele>148.66</ele>
        <time>2013-05-01T07:11:18Z</time>
      </trkpt>
      <trkpt lat="49.88197" lon="4.77696">
        <ele>148.66</ele>
        <time>2013-05-01T07:11:41Z</time>
      </trkpt>
      <trkpt lat="49.88263" lon="4.77609">
        <ele>149.14</ele>
        <time>2013-05-01T07:12:03Z</time>
      </trkpt>
      <trkpt lat="49.88305" lon="4.77538">
        <ele>150.1</ele>
        <time>2013-05-01T07:12:22Z</time>
      </trkpt>
      <trkpt lat="49.88339" lon="4.77422">
        <ele>149.62</ele>
        <time>2013-05-01T07:12:43Z</time>
      </trkpt>
      <trkpt lat="49.88351" lon="4.77325">
        <ele>149.62</ele>
        <time>2013-05-01T07:12:57Z</time>
      </trkpt>
      <trkpt lat="49.88354" lon="4.77285">
        <ele>150.1</ele>
        <time>2013-05-01T07:13:02Z</time>
      </trkpt>
      <trkpt lat="49.88346" lon="4.77161">
        <ele>150.1</ele>
        <time>2013-05-01T07:13:27Z</time>
      </trkpt>
      <trkpt lat="49.8832" lon="4.77085">
        <ele>148.18</ele>
        <time>2013-05-01T07:13:37Z</time>
      </trkpt>
      <trkpt lat="49.88303" lon="4.77015">
        <ele>151.06</ele>
        <time>2013-05-01T07:13:45Z</time>
      </trkpt>
      <trkpt lat="49.88298" lon="4.76973">
        <ele>147.22</ele>
        <time>2013-05-01T07:13:50Z</time>
      </trkpt>
      <trkpt lat="49.88291" lon="4.76876">
        <ele>148.18</ele>
        <time>2013-05-01T07:14:01Z</time>
      </trkpt>
      <trkpt lat="49.88289" lon="4.76821">
        <ele>148.18</ele>
        <time>2013-05-01T07:14:07Z</time>
      </trkpt>
      <trkpt lat="49.88293" lon="4.76681">
        <ele>148.18</ele>
        <time>2013-05-01T07:14:22Z</time>
      </trkpt>
      <trkpt lat="49.88302" lon="4.76542">
        <ele>147.7</ele>
        <time>2013-05-01T07:14:37Z</time>
      </trkpt>
      <trkpt lat="49.88309" lon="4.7642">
        <ele>148.18</ele>
        <time>2013-05-01T07:14:50Z</time>
      </trkpt>
      <trkpt lat="49.88308" lon="4.76269">
        <ele>148.18</ele>
        <time>2013-05-01T07:15:06Z</time>
      </trkpt>
      <trkpt lat="49.88308" lon="4.76144">
        <ele>148.18</ele>
        <time>2013-05-01T07:15:20Z</time>
      </trkpt>
      <trkpt lat="49.88319" lon="4.76011">
        <ele>148.18</ele>
        <time>2013-05-01T07:15:35Z</time>
      </trkpt>
      <trkpt lat="49.88348" lon="4.75869">
        <ele>148.18</ele>
        <time>2013-05-01T07:15:51Z</time>
      </trkpt>
      <trkpt lat="49.88382" lon="4.75715">
        <ele>148.66</ele>
        <time>2013-05-01T07:16:09Z</time>
      </trkpt>
      <trkpt lat="49.88407" lon="4.7547">
        <ele>148.18</ele>
        <time>2013-05-01T07:16:36Z</time>
      </trkpt>
      <trkpt lat="49.88409" lon="4.75356">
        <ele>148.18</ele>
        <time>2013-05-01T07:16:50Z</time>
      </trkpt>
      <trkpt lat="49.88397" lon="4.75251">
        <ele>148.18</ele>
        <time>2013-05-01T07:17:14Z</time>
      </trkpt>
      <trkpt lat="49.88359" lon="4.75096">
        <ele>146.74</ele>
        <time>2013-05-01T07:17:51Z</time>
      </trkpt>
      <trkpt lat="49.88352" lon="4.74918">
        <ele>147.22</ele>
        <time>2013-05-01T07:18:19Z</time>
      </trkpt>
      <trkpt lat="49.88345" lon="4.74833">
        <ele>147.7</ele>
        <time>2013-05-01T07:18:32Z</time>
      </trkpt>
      <trkpt lat="49.8833" lon="4.74771">
        <ele>148.18</ele>
        <time>2013-05-01T07:18:44Z</time>
      </trkpt>
      <trkpt lat="49.88292" lon="4.74657">
        <ele>148.66</ele>
        <time>2013-05-01T07:19:05Z</time>
      </trkpt>
      <trkpt lat="49.88264" lon="4.7458">
        <ele>149.14</ele>
        <time>2013-05-01T07:19:19Z</time>
      </trkpt>
      <trkpt lat="49.8823" lon="4.74503">
        <ele>149.14</ele>
        <time>2013-05-01T07:19:33Z</time>
      </trkpt>
      <trkpt lat="49.8822" lon="4.74413">
        <ele>149.14</ele>
        <time>2013-05-01T07:19:48Z</time>
      </trkpt>
      <trkpt lat="49.88228" lon="4.74242">
        <ele>150.1</ele>
        <time>2013-05-01T07:20:14Z</time>
      </trkpt>
      <trkpt lat="49.88236" lon="4.74164">
        <ele>149.14</ele>
        <time>2013-05-01T07:20:25Z</time>
      </trkpt>
      <trkpt lat="49.88239" lon="4.74104">
        <ele>148.18</ele>
        <time>2013-05-01T07:20:42Z</time>
      </trkpt>
      <trkpt lat="49.88287" lon="4.74102">
        <ele>148.66</ele>
        <time>2013-05-01T07:20:57Z</time>
      </trkpt>
      <trkpt lat="49.88342" lon="4.74101">
        <ele>150.58</ele>
        <time>2013-05-01T07:21:11Z</time>
      </trkpt>
      <trkpt lat="49.88396" lon="4.74099">
        <ele>153.47</ele>
        <time>2013-05-01T07:21:26Z</time>
      </trkpt>
      <trkpt lat="49.88433" lon="4.74034">
        <ele>153.95</ele>
        <time>2013-05-01T07:21:38Z</time>
      </trkpt>
      <trkpt lat="49.885" lon="4.73922">
        <ele>152.51</ele>
        <time>2013-05-01T07:21:54Z</time>
      </trkpt>
      <trkpt lat="49.88523" lon="4.73875">
        <ele>150.58</ele>
        <time>2013-05-01T07:22:00Z</time>
      </trkpt>
    </trkseg>
  </trk>
</gpx>